<?xml version="1.0" encoding="UTF-8" standalone="no" ?>
<gpx xmlns="http://www.topografix.com/GPX/1/1" xmlns:xsi="http://www.w3.org/2001/XMLSchema-instance" xsi:schemaLocation="http://www.topografix.com/GPX/1/1 http://www.topografix.com/GPX/1/1/gpx.xsd" version="1.1" creator="VisuGPX - https://www.visugpx.com">
  <metadata>
    <name>Rando de la tarte aux pommes 2010</name>
    <desc><![CDATA[Rando de la tarte aux pommes. Départ du stade de Mont-près-Chambrod]]></desc>
  </metadata>
  <trk>
    <name><![CDATA[Rando de la tarte aux pommes 2010_1]]></name>
    <trkseg>
      <trkpt lat="47.56365" lon="1.45691">
        <ele>59.4</ele>
        <time>2010-11-06T12:36:21Z</time>
      </trkpt>
      <trkpt lat="47.5637" lon="1.45684">
        <ele>58.6</ele>
        <time>2010-11-06T12:36:24Z</time>
      </trkpt>
      <trkpt lat="47.56396" lon="1.45657">
        <ele>56</ele>
        <time>2010-11-06T12:36:31Z</time>
      </trkpt>
      <trkpt lat="47.56418" lon="1.45627">
        <ele>55</ele>
        <time>2010-11-06T12:36:36Z</time>
      </trkpt>
      <trkpt lat="47.56448" lon="1.45594">
        <ele>54.4</ele>
        <time>2010-11-06T12:36:42Z</time>
      </trkpt>
      <trkpt lat="47.56487" lon="1.45542">
        <ele>53.4</ele>
        <time>2010-11-06T12:36:50Z</time>
      </trkpt>
      <trkpt lat="47.56507" lon="1.45511">
        <ele>52.6</ele>
        <time>2010-11-06T12:36:54Z</time>
      </trkpt>
      <trkpt lat="47.56543" lon="1.45445">
        <ele>50.6</ele>
        <time>2010-11-06T12:37:02Z</time>
      </trkpt>
      <trkpt lat="47.56558" lon="1.45423">
        <ele>50.1</ele>
        <time>2010-11-06T12:37:05Z</time>
      </trkpt>
      <trkpt lat="47.5657" lon="1.45411">
        <ele>49.8</ele>
        <time>2010-11-06T12:37:07Z</time>
      </trkpt>
      <trkpt lat="47.56632" lon="1.45355">
        <ele>49.1</ele>
        <time>2010-11-06T12:37:17Z</time>
      </trkpt>
      <trkpt lat="47.5669" lon="1.45301">
        <ele>48.5</ele>
        <time>2010-11-06T12:37:27Z</time>
      </trkpt>
      <trkpt lat="47.56706" lon="1.45284">
        <ele>48.3</ele>
        <time>2010-11-06T12:37:30Z</time>
      </trkpt>
      <trkpt lat="47.5673" lon="1.45256">
        <ele>47.8</ele>
        <time>2010-11-06T12:37:35Z</time>
      </trkpt>
      <trkpt lat="47.56734" lon="1.45253">
        <ele>47.6</ele>
        <time>2010-11-06T12:37:36Z</time>
      </trkpt>
      <trkpt lat="47.56769" lon="1.45245">
        <ele>46.5</ele>
        <time>2010-11-06T12:37:43Z</time>
      </trkpt>
      <trkpt lat="47.56834" lon="1.45239">
        <ele>45.2</ele>
        <time>2010-11-06T12:37:55Z</time>
      </trkpt>
      <trkpt lat="47.57009" lon="1.45219">
        <ele>46.5</ele>
        <time>2010-11-06T12:38:25Z</time>
      </trkpt>
      <trkpt lat="47.57209" lon="1.45198">
        <ele>46.9</ele>
        <time>2010-11-06T12:38:58Z</time>
      </trkpt>
      <trkpt lat="47.57375" lon="1.45177">
        <ele>44.9</ele>
        <time>2010-11-06T12:39:27Z</time>
      </trkpt>
      <trkpt lat="47.57396" lon="1.45173">
        <ele>44.4</ele>
        <time>2010-11-06T12:39:31Z</time>
      </trkpt>
      <trkpt lat="47.5743" lon="1.45171">
        <ele>43.6</ele>
        <time>2010-11-06T12:39:37Z</time>
      </trkpt>
      <trkpt lat="47.57514" lon="1.45161">
        <ele>42.4</ele>
        <time>2010-11-06T12:39:52Z</time>
      </trkpt>
      <trkpt lat="47.57592" lon="1.4515">
        <ele>42.9</ele>
        <time>2010-11-06T12:40:08Z</time>
      </trkpt>
      <trkpt lat="47.57597" lon="1.45148">
        <ele>42.8</ele>
        <time>2010-11-06T12:40:09Z</time>
      </trkpt>
      <trkpt lat="47.57601" lon="1.45145">
        <ele>42.7</ele>
        <time>2010-11-06T12:40:10Z</time>
      </trkpt>
      <trkpt lat="47.57605" lon="1.45141">
        <ele>42.5</ele>
        <time>2010-11-06T12:40:11Z</time>
      </trkpt>
      <trkpt lat="47.57611" lon="1.45129">
        <ele>42.2</ele>
        <time>2010-11-06T12:40:13Z</time>
      </trkpt>
      <trkpt lat="47.57618" lon="1.45109">
        <ele>41.6</ele>
        <time>2010-11-06T12:40:16Z</time>
      </trkpt>
      <trkpt lat="47.57739" lon="1.44626">
        <ele>42.1</ele>
        <time>2010-11-06T12:41:15Z</time>
      </trkpt>
      <trkpt lat="47.57768" lon="1.445">
        <ele>43.7</ele>
        <time>2010-11-06T12:41:30Z</time>
      </trkpt>
      <trkpt lat="47.57824" lon="1.44284">
        <ele>42.9</ele>
        <time>2010-11-06T12:41:56Z</time>
      </trkpt>
      <trkpt lat="47.57839" lon="1.44214">
        <ele>41.8</ele>
        <time>2010-11-06T12:42:04Z</time>
      </trkpt>
      <trkpt lat="47.57842" lon="1.44206">
        <ele>41.7</ele>
        <time>2010-11-06T12:42:05Z</time>
      </trkpt>
      <trkpt lat="47.57847" lon="1.44202">
        <ele>41.6</ele>
        <time>2010-11-06T12:42:06Z</time>
      </trkpt>
      <trkpt lat="47.57852" lon="1.442">
        <ele>41.5</ele>
        <time>2010-11-06T12:42:07Z</time>
      </trkpt>
      <trkpt lat="47.57857" lon="1.44202">
        <ele>41.3</ele>
        <time>2010-11-06T12:42:08Z</time>
      </trkpt>
      <trkpt lat="47.57873" lon="1.44208">
        <ele>40.8</ele>
        <time>2010-11-06T12:42:11Z</time>
      </trkpt>
      <trkpt lat="47.58024" lon="1.44291">
        <ele>39.1</ele>
        <time>2010-11-06T12:42:40Z</time>
      </trkpt>
      <trkpt lat="47.58295" lon="1.44434">
        <ele>37.9</ele>
        <time>2010-11-06T12:43:28Z</time>
      </trkpt>
      <trkpt lat="47.58311" lon="1.44443">
        <ele>37.9</ele>
        <time>2010-11-06T12:43:31Z</time>
      </trkpt>
      <trkpt lat="47.58313" lon="1.44449">
        <ele>37.8</ele>
        <time>2010-11-06T12:43:32Z</time>
      </trkpt>
      <trkpt lat="47.58313" lon="1.44455">
        <ele>37.6</ele>
        <time>2010-11-06T12:43:33Z</time>
      </trkpt>
      <trkpt lat="47.58311" lon="1.44479">
        <ele>36.9</ele>
        <time>2010-11-06T12:43:37Z</time>
      </trkpt>
      <trkpt lat="47.58291" lon="1.44521">
        <ele>34.4</ele>
        <time>2010-11-06T12:43:46Z</time>
      </trkpt>
      <trkpt lat="47.58261" lon="1.44569">
        <ele>32.8</ele>
        <time>2010-11-06T12:43:58Z</time>
      </trkpt>
      <trkpt lat="47.58255" lon="1.44585">
        <ele>32.1</ele>
        <time>2010-11-06T12:44:01Z</time>
      </trkpt>
      <trkpt lat="47.58251" lon="1.44616">
        <ele>31</ele>
        <time>2010-11-06T12:44:06Z</time>
      </trkpt>
      <trkpt lat="47.58251" lon="1.44637">
        <ele>28.2</ele>
        <time>2010-11-06T12:44:09Z</time>
      </trkpt>
      <trkpt lat="47.58253" lon="1.44649">
        <ele>28.1</ele>
        <time>2010-11-06T12:44:11Z</time>
      </trkpt>
      <trkpt lat="47.5827" lon="1.44678">
        <ele>30.6</ele>
        <time>2010-11-06T12:44:17Z</time>
      </trkpt>
      <trkpt lat="47.58279" lon="1.44702">
        <ele>34.1</ele>
        <time>2010-11-06T12:44:21Z</time>
      </trkpt>
      <trkpt lat="47.58291" lon="1.44728">
        <ele>35.1</ele>
        <time>2010-11-06T12:44:26Z</time>
      </trkpt>
      <trkpt lat="47.58304" lon="1.44764">
        <ele>41.1</ele>
        <time>2010-11-06T12:44:32Z</time>
      </trkpt>
      <trkpt lat="47.58318" lon="1.44793">
        <ele>43.6</ele>
        <time>2010-11-06T12:44:37Z</time>
      </trkpt>
      <trkpt lat="47.58327" lon="1.44818">
        <ele>44.2</ele>
        <time>2010-11-06T12:44:41Z</time>
      </trkpt>
      <trkpt lat="47.5833" lon="1.4483">
        <ele>44.4</ele>
        <time>2010-11-06T12:44:43Z</time>
      </trkpt>
      <trkpt lat="47.5833" lon="1.44953">
        <ele>44</ele>
        <time>2010-11-06T12:45:04Z</time>
      </trkpt>
      <trkpt lat="47.58327" lon="1.44959">
        <ele>43.6</ele>
        <time>2010-11-06T12:45:06Z</time>
      </trkpt>
      <trkpt lat="47.5832" lon="1.44963">
        <ele>43.1</ele>
        <time>2010-11-06T12:45:09Z</time>
      </trkpt>
      <trkpt lat="47.58225" lon="1.44995">
        <ele>39.7</ele>
        <time>2010-11-06T12:45:37Z</time>
      </trkpt>
      <trkpt lat="47.58216" lon="1.44999">
        <ele>39.9</ele>
        <time>2010-11-06T12:45:41Z</time>
      </trkpt>
      <trkpt lat="47.58207" lon="1.45008">
        <ele>40.4</ele>
        <time>2010-11-06T12:45:46Z</time>
      </trkpt>
      <trkpt lat="47.58206" lon="1.45017">
        <ele>40.5</ele>
        <time>2010-11-06T12:45:48Z</time>
      </trkpt>
      <trkpt lat="47.58207" lon="1.45095">
        <ele>40.9</ele>
        <time>2010-11-06T12:46:04Z</time>
      </trkpt>
      <trkpt lat="47.58216" lon="1.45233">
        <ele>39.7</ele>
        <time>2010-11-06T12:46:25Z</time>
      </trkpt>
      <trkpt lat="47.58228" lon="1.45354">
        <ele>37.3</ele>
        <time>2010-11-06T12:46:44Z</time>
      </trkpt>
      <trkpt lat="47.58241" lon="1.45523">
        <ele>37.6</ele>
        <time>2010-11-06T12:47:07Z</time>
      </trkpt>
      <trkpt lat="47.58249" lon="1.45593">
        <ele>39.9</ele>
        <time>2010-11-06T12:47:16Z</time>
      </trkpt>
      <trkpt lat="47.5826" lon="1.45731">
        <ele>39</ele>
        <time>2010-11-06T12:47:36Z</time>
      </trkpt>
      <trkpt lat="47.58272" lon="1.45813">
        <ele>37.2</ele>
        <time>2010-11-06T12:47:50Z</time>
      </trkpt>
      <trkpt lat="47.58279" lon="1.45905">
        <ele>35.5</ele>
        <time>2010-11-06T12:48:04Z</time>
      </trkpt>
      <trkpt lat="47.58284" lon="1.45911">
        <ele>35.5</ele>
        <time>2010-11-06T12:48:06Z</time>
      </trkpt>
      <trkpt lat="47.58286" lon="1.45912">
        <ele>35.6</ele>
        <time>2010-11-06T12:48:07Z</time>
      </trkpt>
      <trkpt lat="47.58301" lon="1.4591">
        <ele>37.5</ele>
        <time>2010-11-06T12:48:11Z</time>
      </trkpt>
      <trkpt lat="47.58336" lon="1.45911">
        <ele>43.1</ele>
        <time>2010-11-06T12:48:19Z</time>
      </trkpt>
      <trkpt lat="47.58373" lon="1.45904">
        <ele>44.4</ele>
        <time>2010-11-06T12:48:28Z</time>
      </trkpt>
      <trkpt lat="47.584" lon="1.45897">
        <ele>42.6</ele>
        <time>2010-11-06T12:48:34Z</time>
      </trkpt>
      <trkpt lat="47.58408" lon="1.45899">
        <ele>42.1</ele>
        <time>2010-11-06T12:48:36Z</time>
      </trkpt>
      <trkpt lat="47.58431" lon="1.45926">
        <ele>40.2</ele>
        <time>2010-11-06T12:48:42Z</time>
      </trkpt>
      <trkpt lat="47.58464" lon="1.45959">
        <ele>39.3</ele>
        <time>2010-11-06T12:48:50Z</time>
      </trkpt>
      <trkpt lat="47.58524" lon="1.46029">
        <ele>39.7</ele>
        <time>2010-11-06T12:49:06Z</time>
      </trkpt>
      <trkpt lat="47.5855" lon="1.46066">
        <ele>40</ele>
        <time>2010-11-06T12:49:13Z</time>
      </trkpt>
      <trkpt lat="47.58551" lon="1.46072">
        <ele>40</ele>
        <time>2010-11-06T12:49:14Z</time>
      </trkpt>
      <trkpt lat="47.58548" lon="1.46083">
        <ele>39.7</ele>
        <time>2010-11-06T12:49:16Z</time>
      </trkpt>
      <trkpt lat="47.58541" lon="1.46101">
        <ele>39.6</ele>
        <time>2010-11-06T12:49:19Z</time>
      </trkpt>
      <trkpt lat="47.58498" lon="1.46192">
        <ele>39.1</ele>
        <time>2010-11-06T12:49:33Z</time>
      </trkpt>
      <trkpt lat="47.58463" lon="1.46272">
        <ele>38.2</ele>
        <time>2010-11-06T12:49:45Z</time>
      </trkpt>
      <trkpt lat="47.58454" lon="1.46301">
        <ele>37.6</ele>
        <time>2010-11-06T12:49:49Z</time>
      </trkpt>
      <trkpt lat="47.58429" lon="1.46389">
        <ele>36.1</ele>
        <time>2010-11-06T12:50:01Z</time>
      </trkpt>
      <trkpt lat="47.58424" lon="1.46412">
        <ele>35.6</ele>
        <time>2010-11-06T12:50:04Z</time>
      </trkpt>
      <trkpt lat="47.58421" lon="1.46436">
        <ele>35.3</ele>
        <time>2010-11-06T12:50:07Z</time>
      </trkpt>
      <trkpt lat="47.58421" lon="1.46461">
        <ele>35.1</ele>
        <time>2010-11-06T12:50:10Z</time>
      </trkpt>
      <trkpt lat="47.58424" lon="1.46487">
        <ele>34.9</ele>
        <time>2010-11-06T12:50:13Z</time>
      </trkpt>
      <trkpt lat="47.5844" lon="1.46562">
        <ele>35.2</ele>
        <time>2010-11-06T12:50:22Z</time>
      </trkpt>
      <trkpt lat="47.58446" lon="1.46607">
        <ele>35.5</ele>
        <time>2010-11-06T12:50:27Z</time>
      </trkpt>
      <trkpt lat="47.58448" lon="1.46642">
        <ele>35.4</ele>
        <time>2010-11-06T12:50:31Z</time>
      </trkpt>
      <trkpt lat="47.58445" lon="1.46668">
        <ele>35.2</ele>
        <time>2010-11-06T12:50:34Z</time>
      </trkpt>
      <trkpt lat="47.58431" lon="1.46709">
        <ele>35.2</ele>
        <time>2010-11-06T12:50:39Z</time>
      </trkpt>
      <trkpt lat="47.58371" lon="1.46826">
        <ele>36.5</ele>
        <time>2010-11-06T12:50:55Z</time>
      </trkpt>
      <trkpt lat="47.58329" lon="1.46902">
        <ele>39.5</ele>
        <time>2010-11-06T12:51:06Z</time>
      </trkpt>
      <trkpt lat="47.58277" lon="1.46987">
        <ele>39.8</ele>
        <time>2010-11-06T12:51:19Z</time>
      </trkpt>
      <trkpt lat="47.58268" lon="1.47008">
        <ele>39.9</ele>
        <time>2010-11-06T12:51:22Z</time>
      </trkpt>
      <trkpt lat="47.58258" lon="1.4705">
        <ele>39.4</ele>
        <time>2010-11-06T12:51:29Z</time>
      </trkpt>
      <trkpt lat="47.58255" lon="1.47054">
        <ele>39.4</ele>
        <time>2010-11-06T12:51:31Z</time>
      </trkpt>
      <trkpt lat="47.58251" lon="1.47052">
        <ele>39.3</ele>
        <time>2010-11-06T12:51:34Z</time>
      </trkpt>
      <trkpt lat="47.58235" lon="1.47055">
        <ele>39</ele>
        <time>2010-11-06T12:51:39Z</time>
      </trkpt>
      <trkpt lat="47.58214" lon="1.47055">
        <ele>38.9</ele>
        <time>2010-11-06T12:51:45Z</time>
      </trkpt>
      <trkpt lat="47.58145" lon="1.47049">
        <ele>38.2</ele>
        <time>2010-11-06T12:52:03Z</time>
      </trkpt>
      <trkpt lat="47.58101" lon="1.47043">
        <ele>37</ele>
        <time>2010-11-06T12:52:14Z</time>
      </trkpt>
      <trkpt lat="47.58046" lon="1.47041">
        <ele>36.7</ele>
        <time>2010-11-06T12:52:29Z</time>
      </trkpt>
      <trkpt lat="47.57999" lon="1.47035">
        <ele>37.3</ele>
        <time>2010-11-06T12:52:40Z</time>
      </trkpt>
      <trkpt lat="47.57943" lon="1.47032">
        <ele>37.6</ele>
        <time>2010-11-06T12:52:54Z</time>
      </trkpt>
      <trkpt lat="47.57911" lon="1.47029">
        <ele>37.9</ele>
        <time>2010-11-06T12:53:02Z</time>
      </trkpt>
      <trkpt lat="47.57848" lon="1.47027">
        <ele>39.7</ele>
        <time>2010-11-06T12:53:17Z</time>
      </trkpt>
      <trkpt lat="47.57822" lon="1.47024">
        <ele>40.4</ele>
        <time>2010-11-06T12:53:24Z</time>
      </trkpt>
      <trkpt lat="47.57819" lon="1.47025">
        <ele>40.5</ele>
        <time>2010-11-06T12:53:25Z</time>
      </trkpt>
      <trkpt lat="47.57814" lon="1.4703">
        <ele>40.7</ele>
        <time>2010-11-06T12:53:27Z</time>
      </trkpt>
      <trkpt lat="47.57813" lon="1.47034">
        <ele>40.7</ele>
        <time>2010-11-06T12:53:28Z</time>
      </trkpt>
      <trkpt lat="47.57815" lon="1.47051">
        <ele>41.2</ele>
        <time>2010-11-06T12:53:31Z</time>
      </trkpt>
      <trkpt lat="47.57815" lon="1.47104">
        <ele>41.7</ele>
        <time>2010-11-06T12:53:40Z</time>
      </trkpt>
      <trkpt lat="47.57816" lon="1.47135">
        <ele>41.5</ele>
        <time>2010-11-06T12:53:45Z</time>
      </trkpt>
      <trkpt lat="47.5783" lon="1.47296">
        <ele>44.3</ele>
        <time>2010-11-06T12:54:08Z</time>
      </trkpt>
      <trkpt lat="47.5784" lon="1.47384">
        <ele>42.5</ele>
        <time>2010-11-06T12:54:20Z</time>
      </trkpt>
      <trkpt lat="47.57848" lon="1.47509">
        <ele>47.1</ele>
        <time>2010-11-06T12:54:36Z</time>
      </trkpt>
      <trkpt lat="47.57864" lon="1.47689">
        <ele>45.8</ele>
        <time>2010-11-06T12:55:01Z</time>
      </trkpt>
      <trkpt lat="47.57876" lon="1.47789">
        <ele>42.2</ele>
        <time>2010-11-06T12:55:15Z</time>
      </trkpt>
      <trkpt lat="47.57883" lon="1.47903">
        <ele>39.7</ele>
        <time>2010-11-06T12:55:30Z</time>
      </trkpt>
      <trkpt lat="47.57889" lon="1.47954">
        <ele>37.4</ele>
        <time>2010-11-06T12:55:37Z</time>
      </trkpt>
      <trkpt lat="47.57892" lon="1.48005">
        <ele>38.6</ele>
        <time>2010-11-06T12:55:44Z</time>
      </trkpt>
      <trkpt lat="47.579" lon="1.48077">
        <ele>39.1</ele>
        <time>2010-11-06T12:55:53Z</time>
      </trkpt>
      <trkpt lat="47.57924" lon="1.48393">
        <ele>39.4</ele>
        <time>2010-11-06T12:56:36Z</time>
      </trkpt>
      <trkpt lat="47.57928" lon="1.48432">
        <ele>39.7</ele>
        <time>2010-11-06T12:56:42Z</time>
      </trkpt>
      <trkpt lat="47.57932" lon="1.48444">
        <ele>40.5</ele>
        <time>2010-11-06T12:56:44Z</time>
      </trkpt>
      <trkpt lat="47.57935" lon="1.48449">
        <ele>41</ele>
        <time>2010-11-06T12:56:45Z</time>
      </trkpt>
      <trkpt lat="47.57943" lon="1.48454">
        <ele>41.5</ele>
        <time>2010-11-06T12:56:47Z</time>
      </trkpt>
      <trkpt lat="47.57949" lon="1.48453">
        <ele>41.6</ele>
        <time>2010-11-06T12:56:49Z</time>
      </trkpt>
      <trkpt lat="47.57956" lon="1.48444">
        <ele>43.2</ele>
        <time>2010-11-06T12:56:52Z</time>
      </trkpt>
      <trkpt lat="47.57974" lon="1.48434">
        <ele>45.4</ele>
        <time>2010-11-06T12:56:56Z</time>
      </trkpt>
      <trkpt lat="47.57986" lon="1.48425">
        <ele>46.8</ele>
        <time>2010-11-06T12:56:59Z</time>
      </trkpt>
      <trkpt lat="47.58022" lon="1.48394">
        <ele>43.8</ele>
        <time>2010-11-06T12:57:08Z</time>
      </trkpt>
      <trkpt lat="47.5813" lon="1.48289">
        <ele>43.9</ele>
        <time>2010-11-06T12:57:30Z</time>
      </trkpt>
      <trkpt lat="47.58177" lon="1.48239">
        <ele>42.4</ele>
        <time>2010-11-06T12:57:43Z</time>
      </trkpt>
      <trkpt lat="47.58185" lon="1.48225">
        <ele>42</ele>
        <time>2010-11-06T12:57:47Z</time>
      </trkpt>
      <trkpt lat="47.58224" lon="1.48183">
        <ele>41.2</ele>
        <time>2010-11-06T12:57:58Z</time>
      </trkpt>
      <trkpt lat="47.58241" lon="1.48167">
        <ele>42.1</ele>
        <time>2010-11-06T12:58:02Z</time>
      </trkpt>
      <trkpt lat="47.58268" lon="1.48145">
        <ele>43.9</ele>
        <time>2010-11-06T12:58:08Z</time>
      </trkpt>
      <trkpt lat="47.58331" lon="1.48083">
        <ele>44.3</ele>
        <time>2010-11-06T12:58:26Z</time>
      </trkpt>
      <trkpt lat="47.58367" lon="1.48042">
        <ele>42.8</ele>
        <time>2010-11-06T12:58:34Z</time>
      </trkpt>
      <trkpt lat="47.58374" lon="1.4804">
        <ele>42.9</ele>
        <time>2010-11-06T12:58:36Z</time>
      </trkpt>
      <trkpt lat="47.58376" lon="1.48042">
        <ele>42.9</ele>
        <time>2010-11-06T12:58:37Z</time>
      </trkpt>
      <trkpt lat="47.58382" lon="1.48055">
        <ele>43.2</ele>
        <time>2010-11-06T12:58:40Z</time>
      </trkpt>
      <trkpt lat="47.58399" lon="1.48161">
        <ele>40.7</ele>
        <time>2010-11-06T12:58:57Z</time>
      </trkpt>
      <trkpt lat="47.58412" lon="1.48289">
        <ele>32.8</ele>
        <time>2010-11-06T12:59:15Z</time>
      </trkpt>
      <trkpt lat="47.5841" lon="1.48307">
        <ele>32.6</ele>
        <time>2010-11-06T12:59:21Z</time>
      </trkpt>
      <trkpt lat="47.58415" lon="1.48319">
        <ele>32.3</ele>
        <time>2010-11-06T12:59:24Z</time>
      </trkpt>
      <trkpt lat="47.58421" lon="1.48351">
        <ele>29</ele>
        <time>2010-11-06T12:59:30Z</time>
      </trkpt>
      <trkpt lat="47.58435" lon="1.4853">
        <ele>20.6</ele>
        <time>2010-11-06T12:59:55Z</time>
      </trkpt>
      <trkpt lat="47.58446" lon="1.4862">
        <ele>23.3</ele>
        <time>2010-11-06T13:00:07Z</time>
      </trkpt>
      <trkpt lat="47.58451" lon="1.48675">
        <ele>26.2</ele>
        <time>2010-11-06T13:00:14Z</time>
      </trkpt>
      <trkpt lat="47.58451" lon="1.48716">
        <ele>28</ele>
        <time>2010-11-06T13:00:19Z</time>
      </trkpt>
      <trkpt lat="47.58485" lon="1.49078">
        <ele>35.1</ele>
        <time>2010-11-06T13:01:01Z</time>
      </trkpt>
      <trkpt lat="47.58495" lon="1.49174">
        <ele>35</ele>
        <time>2010-11-06T13:01:12Z</time>
      </trkpt>
      <trkpt lat="47.58507" lon="1.49304">
        <ele>36.7</ele>
        <time>2010-11-06T13:01:26Z</time>
      </trkpt>
      <trkpt lat="47.58514" lon="1.49386">
        <ele>46.9</ele>
        <time>2010-11-06T13:01:34Z</time>
      </trkpt>
      <trkpt lat="47.58537" lon="1.4964">
        <ele>49.7</ele>
        <time>2010-11-06T13:02:01Z</time>
      </trkpt>
      <trkpt lat="47.58579" lon="1.50084">
        <ele>45.9</ele>
        <time>2010-11-06T13:02:49Z</time>
      </trkpt>
      <trkpt lat="47.5858" lon="1.50093">
        <ele>46.1</ele>
        <time>2010-11-06T13:02:50Z</time>
      </trkpt>
      <trkpt lat="47.58578" lon="1.501">
        <ele>46.4</ele>
        <time>2010-11-06T13:02:51Z</time>
      </trkpt>
      <trkpt lat="47.58573" lon="1.50114">
        <ele>46.7</ele>
        <time>2010-11-06T13:02:53Z</time>
      </trkpt>
      <trkpt lat="47.58564" lon="1.50132">
        <ele>46.6</ele>
        <time>2010-11-06T13:02:56Z</time>
      </trkpt>
      <trkpt lat="47.58486" lon="1.50262">
        <ele>44.4</ele>
        <time>2010-11-06T13:03:22Z</time>
      </trkpt>
      <trkpt lat="47.58443" lon="1.50342">
        <ele>48.1</ele>
        <time>2010-11-06T13:03:38Z</time>
      </trkpt>
      <trkpt lat="47.58425" lon="1.50367">
        <ele>47.8</ele>
        <time>2010-11-06T13:03:44Z</time>
      </trkpt>
      <trkpt lat="47.58408" lon="1.50397">
        <ele>47.5</ele>
        <time>2010-11-06T13:03:50Z</time>
      </trkpt>
      <trkpt lat="47.58403" lon="1.50405">
        <ele>47.5</ele>
        <time>2010-11-06T13:03:52Z</time>
      </trkpt>
      <trkpt lat="47.584" lon="1.50406">
        <ele>47.4</ele>
        <time>2010-11-06T13:03:53Z</time>
      </trkpt>
      <trkpt lat="47.58392" lon="1.50404">
        <ele>47</ele>
        <time>2010-11-06T13:04:07Z</time>
      </trkpt>
      <trkpt lat="47.58391" lon="1.50406">
        <ele>46.8</ele>
        <time>2010-11-06T13:04:10Z</time>
      </trkpt>
      <trkpt lat="47.58387" lon="1.50399">
        <ele>46.6</ele>
        <time>2010-11-06T13:04:23Z</time>
      </trkpt>
      <trkpt lat="47.58373" lon="1.50385">
        <ele>46.5</ele>
        <time>2010-11-06T13:04:29Z</time>
      </trkpt>
      <trkpt lat="47.58253" lon="1.50286">
        <ele>46.8</ele>
        <time>2010-11-06T13:05:05Z</time>
      </trkpt>
      <trkpt lat="47.5822" lon="1.50256">
        <ele>47.1</ele>
        <time>2010-11-06T13:05:14Z</time>
      </trkpt>
      <trkpt lat="47.58198" lon="1.5024">
        <ele>47.1</ele>
        <time>2010-11-06T13:05:21Z</time>
      </trkpt>
      <trkpt lat="47.5816" lon="1.50207">
        <ele>46.8</ele>
        <time>2010-11-06T13:05:33Z</time>
      </trkpt>
      <trkpt lat="47.581" lon="1.50151">
        <ele>47.4</ele>
        <time>2010-11-06T13:05:50Z</time>
      </trkpt>
      <trkpt lat="47.58097" lon="1.50151">
        <ele>47.4</ele>
        <time>2010-11-06T13:05:51Z</time>
      </trkpt>
      <trkpt lat="47.58094" lon="1.50152">
        <ele>47.4</ele>
        <time>2010-11-06T13:05:52Z</time>
      </trkpt>
      <trkpt lat="47.58093" lon="1.50155">
        <ele>47.3</ele>
        <time>2010-11-06T13:05:53Z</time>
      </trkpt>
      <trkpt lat="47.58091" lon="1.502">
        <ele>47.5</ele>
        <time>2010-11-06T13:06:02Z</time>
      </trkpt>
      <trkpt lat="47.58094" lon="1.50254">
        <ele>48.1</ele>
        <time>2010-11-06T13:06:10Z</time>
      </trkpt>
      <trkpt lat="47.58124" lon="1.50574">
        <ele>39.6</ele>
        <time>2010-11-06T13:06:50Z</time>
      </trkpt>
      <trkpt lat="47.5814" lon="1.50774">
        <ele>39.8</ele>
        <time>2010-11-06T13:07:12Z</time>
      </trkpt>
      <trkpt lat="47.58142" lon="1.5082">
        <ele>39.7</ele>
        <time>2010-11-06T13:07:17Z</time>
      </trkpt>
      <trkpt lat="47.58133" lon="1.50851">
        <ele>39.1</ele>
        <time>2010-11-06T13:07:21Z</time>
      </trkpt>
      <trkpt lat="47.58006" lon="1.51202">
        <ele>37</ele>
        <time>2010-11-06T13:08:11Z</time>
      </trkpt>
      <trkpt lat="47.57931" lon="1.51412">
        <ele>41.1</ele>
        <time>2010-11-06T13:08:43Z</time>
      </trkpt>
      <trkpt lat="47.57903" lon="1.51485">
        <ele>42.6</ele>
        <time>2010-11-06T13:08:54Z</time>
      </trkpt>
      <trkpt lat="47.5788" lon="1.51553">
        <ele>44.3</ele>
        <time>2010-11-06T13:09:04Z</time>
      </trkpt>
      <trkpt lat="47.57844" lon="1.51647">
        <ele>47</ele>
        <time>2010-11-06T13:09:17Z</time>
      </trkpt>
      <trkpt lat="47.57772" lon="1.51853">
        <ele>56.2</ele>
        <time>2010-11-06T13:09:43Z</time>
      </trkpt>
      <trkpt lat="47.57754" lon="1.51908">
        <ele>56</ele>
        <time>2010-11-06T13:09:50Z</time>
      </trkpt>
      <trkpt lat="47.577" lon="1.52055">
        <ele>54</ele>
        <time>2010-11-06T13:10:09Z</time>
      </trkpt>
      <trkpt lat="47.57691" lon="1.52065">
        <ele>53.8</ele>
        <time>2010-11-06T13:10:11Z</time>
      </trkpt>
      <trkpt lat="47.57682" lon="1.52071">
        <ele>53.9</ele>
        <time>2010-11-06T13:10:13Z</time>
      </trkpt>
      <trkpt lat="47.57673" lon="1.52075">
        <ele>54.3</ele>
        <time>2010-11-06T13:10:15Z</time>
      </trkpt>
      <trkpt lat="47.5766" lon="1.5208">
        <ele>54.3</ele>
        <time>2010-11-06T13:10:18Z</time>
      </trkpt>
      <trkpt lat="47.57619" lon="1.52089">
        <ele>54.2</ele>
        <time>2010-11-06T13:10:27Z</time>
      </trkpt>
      <trkpt lat="47.57583" lon="1.52093">
        <ele>53.8</ele>
        <time>2010-11-06T13:10:36Z</time>
      </trkpt>
      <trkpt lat="47.57572" lon="1.52098">
        <ele>53.7</ele>
        <time>2010-11-06T13:10:39Z</time>
      </trkpt>
      <trkpt lat="47.57526" lon="1.52111">
        <ele>55.5</ele>
        <time>2010-11-06T13:10:49Z</time>
      </trkpt>
      <trkpt lat="47.57488" lon="1.52117">
        <ele>56.7</ele>
        <time>2010-11-06T13:10:57Z</time>
      </trkpt>
      <trkpt lat="47.57475" lon="1.5212">
        <ele>55.8</ele>
        <time>2010-11-06T13:11:00Z</time>
      </trkpt>
      <trkpt lat="47.57441" lon="1.52131">
        <ele>58.6</ele>
        <time>2010-11-06T13:11:07Z</time>
      </trkpt>
      <trkpt lat="47.57391" lon="1.5214">
        <ele>58.8</ele>
        <time>2010-11-06T13:11:19Z</time>
      </trkpt>
      <trkpt lat="47.57364" lon="1.52147">
        <ele>59.1</ele>
        <time>2010-11-06T13:11:25Z</time>
      </trkpt>
      <trkpt lat="47.57295" lon="1.52161">
        <ele>60.5</ele>
        <time>2010-11-06T13:11:42Z</time>
      </trkpt>
      <trkpt lat="47.57223" lon="1.52181">
        <ele>60.2</ele>
        <time>2010-11-06T13:11:59Z</time>
      </trkpt>
      <trkpt lat="47.57162" lon="1.52192">
        <ele>60.3</ele>
        <time>2010-11-06T13:12:19Z</time>
      </trkpt>
      <trkpt lat="47.57159" lon="1.52198">
        <ele>60.8</ele>
        <time>2010-11-06T13:12:28Z</time>
      </trkpt>
      <trkpt lat="47.5716" lon="1.52212">
        <ele>63.2</ele>
        <time>2010-11-06T13:15:03Z</time>
      </trkpt>
      <trkpt lat="47.57161" lon="1.52217">
        <ele>62.7</ele>
        <time>2010-11-06T13:15:15Z</time>
      </trkpt>
      <trkpt lat="47.57164" lon="1.52219">
        <ele>62.7</ele>
        <time>2010-11-06T13:15:23Z</time>
      </trkpt>
      <trkpt lat="47.57159" lon="1.52216">
        <ele>63.3</ele>
        <time>2010-11-06T13:15:31Z</time>
      </trkpt>
      <trkpt lat="47.57148" lon="1.52205">
        <ele>63.3</ele>
        <time>2010-11-06T13:15:48Z</time>
      </trkpt>
      <trkpt lat="47.57145" lon="1.52207">
        <ele>63.2</ele>
        <time>2010-11-06T13:15:59Z</time>
      </trkpt>
      <trkpt lat="47.57136" lon="1.52204">
        <ele>62.7</ele>
        <time>2010-11-06T13:16:05Z</time>
      </trkpt>
      <trkpt lat="47.57129" lon="1.52204">
        <ele>62.4</ele>
        <time>2010-11-06T13:16:08Z</time>
      </trkpt>
      <trkpt lat="47.57126" lon="1.52207">
        <ele>62.2</ele>
        <time>2010-11-06T13:16:10Z</time>
      </trkpt>
      <trkpt lat="47.57125" lon="1.52209">
        <ele>62.1</ele>
        <time>2010-11-06T13:16:11Z</time>
      </trkpt>
      <trkpt lat="47.57129" lon="1.52223">
        <ele>61.5</ele>
        <time>2010-11-06T13:16:15Z</time>
      </trkpt>
      <trkpt lat="47.57134" lon="1.52231">
        <ele>61.2</ele>
        <time>2010-11-06T13:16:17Z</time>
      </trkpt>
      <trkpt lat="47.57159" lon="1.52256">
        <ele>58.3</ele>
        <time>2010-11-06T13:16:24Z</time>
      </trkpt>
      <trkpt lat="47.57202" lon="1.52294">
        <ele>55.1</ele>
        <time>2010-11-06T13:16:34Z</time>
      </trkpt>
      <trkpt lat="47.57253" lon="1.52344">
        <ele>58.5</ele>
        <time>2010-11-06T13:16:48Z</time>
      </trkpt>
      <trkpt lat="47.57324" lon="1.52411">
        <ele>57.5</ele>
        <time>2010-11-06T13:17:07Z</time>
      </trkpt>
      <trkpt lat="47.57373" lon="1.52462">
        <ele>57.9</ele>
        <time>2010-11-06T13:17:22Z</time>
      </trkpt>
      <trkpt lat="47.57492" lon="1.52572">
        <ele>57</ele>
        <time>2010-11-06T13:17:53Z</time>
      </trkpt>
      <trkpt lat="47.57493" lon="1.52584">
        <ele>56.8</ele>
        <time>2010-11-06T13:17:56Z</time>
      </trkpt>
      <trkpt lat="47.57478" lon="1.52642">
        <ele>51.9</ele>
        <time>2010-11-06T13:18:06Z</time>
      </trkpt>
      <trkpt lat="47.57467" lon="1.52676">
        <ele>51.5</ele>
        <time>2010-11-06T13:18:13Z</time>
      </trkpt>
      <trkpt lat="47.57434" lon="1.52765">
        <ele>46.8</ele>
        <time>2010-11-06T13:18:32Z</time>
      </trkpt>
      <trkpt lat="47.57403" lon="1.52861">
        <ele>52.5</ele>
        <time>2010-11-06T13:18:47Z</time>
      </trkpt>
      <trkpt lat="47.57387" lon="1.52899">
        <ele>52.9</ele>
        <time>2010-11-06T13:18:53Z</time>
      </trkpt>
      <trkpt lat="47.57285" lon="1.53188">
        <ele>51.8</ele>
        <time>2010-11-06T13:19:36Z</time>
      </trkpt>
      <trkpt lat="47.5726" lon="1.53241">
        <ele>55.5</ele>
        <time>2010-11-06T13:19:46Z</time>
      </trkpt>
      <trkpt lat="47.57257" lon="1.53265">
        <ele>55.8</ele>
        <time>2010-11-06T13:19:51Z</time>
      </trkpt>
      <trkpt lat="47.57257" lon="1.53275">
        <ele>55.9</ele>
        <time>2010-11-06T13:19:53Z</time>
      </trkpt>
      <trkpt lat="47.5726" lon="1.53284">
        <ele>56.1</ele>
        <time>2010-11-06T13:19:55Z</time>
      </trkpt>
      <trkpt lat="47.5727" lon="1.53302">
        <ele>55.8</ele>
        <time>2010-11-06T13:20:14Z</time>
      </trkpt>
      <trkpt lat="47.57281" lon="1.53314">
        <ele>54.7</ele>
        <time>2010-11-06T13:20:18Z</time>
      </trkpt>
      <trkpt lat="47.57291" lon="1.53336">
        <ele>52.3</ele>
        <time>2010-11-06T13:20:22Z</time>
      </trkpt>
      <trkpt lat="47.57301" lon="1.53353">
        <ele>51.7</ele>
        <time>2010-11-06T13:20:25Z</time>
      </trkpt>
      <trkpt lat="47.57407" lon="1.53517">
        <ele>55</ele>
        <time>2010-11-06T13:20:52Z</time>
      </trkpt>
      <trkpt lat="47.57437" lon="1.53567">
        <ele>55.3</ele>
        <time>2010-11-06T13:21:00Z</time>
      </trkpt>
      <trkpt lat="47.57489" lon="1.53646">
        <ele>51.3</ele>
        <time>2010-11-06T13:21:14Z</time>
      </trkpt>
      <trkpt lat="47.57512" lon="1.53682">
        <ele>52.1</ele>
        <time>2010-11-06T13:21:20Z</time>
      </trkpt>
      <trkpt lat="47.57542" lon="1.53736">
        <ele>55.7</ele>
        <time>2010-11-06T13:21:29Z</time>
      </trkpt>
      <trkpt lat="47.57586" lon="1.53801">
        <ele>55</ele>
        <time>2010-11-06T13:21:41Z</time>
      </trkpt>
      <trkpt lat="47.57629" lon="1.5387">
        <ele>58.6</ele>
        <time>2010-11-06T13:21:54Z</time>
      </trkpt>
      <trkpt lat="47.57693" lon="1.53962">
        <ele>53.8</ele>
        <time>2010-11-06T13:22:12Z</time>
      </trkpt>
      <trkpt lat="47.57715" lon="1.54001">
        <ele>56.1</ele>
        <time>2010-11-06T13:22:19Z</time>
      </trkpt>
      <trkpt lat="47.57799" lon="1.54128">
        <ele>59.7</ele>
        <time>2010-11-06T13:22:44Z</time>
      </trkpt>
      <trkpt lat="47.57884" lon="1.54265">
        <ele>68.9</ele>
        <time>2010-11-06T13:23:07Z</time>
      </trkpt>
      <trkpt lat="47.57948" lon="1.54364">
        <ele>68.2</ele>
        <time>2010-11-06T13:23:24Z</time>
      </trkpt>
      <trkpt lat="47.57956" lon="1.54377">
        <ele>67</ele>
        <time>2010-11-06T13:23:26Z</time>
      </trkpt>
      <trkpt lat="47.57958" lon="1.54385">
        <ele>66.6</ele>
        <time>2010-11-06T13:23:27Z</time>
      </trkpt>
      <trkpt lat="47.57956" lon="1.54409">
        <ele>65.5</ele>
        <time>2010-11-06T13:23:30Z</time>
      </trkpt>
      <trkpt lat="47.57947" lon="1.54456">
        <ele>64.1</ele>
        <time>2010-11-06T13:23:36Z</time>
      </trkpt>
      <trkpt lat="47.57906" lon="1.5462">
        <ele>63.1</ele>
        <time>2010-11-06T13:23:57Z</time>
      </trkpt>
      <trkpt lat="47.57763" lon="1.55147">
        <ele>63.7</ele>
        <time>2010-11-06T13:24:59Z</time>
      </trkpt>
      <trkpt lat="47.5773" lon="1.55272">
        <ele>64.3</ele>
        <time>2010-11-06T13:25:12Z</time>
      </trkpt>
      <trkpt lat="47.57585" lon="1.55812">
        <ele>63.6</ele>
        <time>2010-11-06T13:26:06Z</time>
      </trkpt>
      <trkpt lat="47.57584" lon="1.55821">
        <ele>63.4</ele>
        <time>2010-11-06T13:26:07Z</time>
      </trkpt>
      <trkpt lat="47.57587" lon="1.55837">
        <ele>63.1</ele>
        <time>2010-11-06T13:26:09Z</time>
      </trkpt>
      <trkpt lat="47.57595" lon="1.55848">
        <ele>62.8</ele>
        <time>2010-11-06T13:26:11Z</time>
      </trkpt>
      <trkpt lat="47.57631" lon="1.55871">
        <ele>61.2</ele>
        <time>2010-11-06T13:26:18Z</time>
      </trkpt>
      <trkpt lat="47.57775" lon="1.55954">
        <ele>58.8</ele>
        <time>2010-11-06T13:26:45Z</time>
      </trkpt>
      <trkpt lat="47.58066" lon="1.56126">
        <ele>62.3</ele>
        <time>2010-11-06T13:27:34Z</time>
      </trkpt>
      <trkpt lat="47.58167" lon="1.56187">
        <ele>62.8</ele>
        <time>2010-11-06T13:27:49Z</time>
      </trkpt>
      <trkpt lat="47.58229" lon="1.56222">
        <ele>61.5</ele>
        <time>2010-11-06T13:27:58Z</time>
      </trkpt>
      <trkpt lat="47.58421" lon="1.56337">
        <ele>60</ele>
        <time>2010-11-06T13:28:26Z</time>
      </trkpt>
      <trkpt lat="47.58481" lon="1.56375">
        <ele>60.6</ele>
        <time>2010-11-06T13:28:33Z</time>
      </trkpt>
      <trkpt lat="47.58622" lon="1.56457">
        <ele>58.6</ele>
        <time>2010-11-06T13:28:59Z</time>
      </trkpt>
      <trkpt lat="47.58627" lon="1.56464">
        <ele>58.6</ele>
        <time>2010-11-06T13:29:01Z</time>
      </trkpt>
      <trkpt lat="47.5863" lon="1.56476">
        <ele>57.8</ele>
        <time>2010-11-06T13:29:03Z</time>
      </trkpt>
      <trkpt lat="47.58638" lon="1.56526">
        <ele>57.1</ele>
        <time>2010-11-06T13:29:09Z</time>
      </trkpt>
      <trkpt lat="47.58649" lon="1.56621">
        <ele>56.6</ele>
        <time>2010-11-06T13:29:19Z</time>
      </trkpt>
      <trkpt lat="47.5867" lon="1.56834">
        <ele>53.3</ele>
        <time>2010-11-06T13:29:43Z</time>
      </trkpt>
      <trkpt lat="47.58684" lon="1.56947">
        <ele>53.6</ele>
        <time>2010-11-06T13:29:59Z</time>
      </trkpt>
      <trkpt lat="47.58684" lon="1.56982">
        <ele>55.5</ele>
        <time>2010-11-06T13:32:32Z</time>
      </trkpt>
      <trkpt lat="47.58696" lon="1.57073">
        <ele>60.7</ele>
        <time>2010-11-06T13:32:48Z</time>
      </trkpt>
      <trkpt lat="47.58705" lon="1.57169">
        <ele>57.1</ele>
        <time>2010-11-06T13:33:02Z</time>
      </trkpt>
      <trkpt lat="47.58704" lon="1.57184">
        <ele>54.5</ele>
        <time>2010-11-06T13:33:03Z</time>
      </trkpt>
      <trkpt lat="47.58712" lon="1.57239">
        <ele>47.3</ele>
        <time>2010-11-06T13:33:11Z</time>
      </trkpt>
      <trkpt lat="47.58726" lon="1.5738">
        <ele>47.8</ele>
        <time>2010-11-06T13:33:33Z</time>
      </trkpt>
      <trkpt lat="47.58733" lon="1.5742">
        <ele>47.8</ele>
        <time>2010-11-06T13:33:41Z</time>
      </trkpt>
      <trkpt lat="47.58738" lon="1.57472">
        <ele>47.7</ele>
        <time>2010-11-06T13:33:51Z</time>
      </trkpt>
      <trkpt lat="47.58751" lon="1.5763">
        <ele>47.9</ele>
        <time>2010-11-06T13:34:19Z</time>
      </trkpt>
      <trkpt lat="47.58763" lon="1.57753">
        <ele>48.1</ele>
        <time>2010-11-06T13:34:40Z</time>
      </trkpt>
      <trkpt lat="47.5877" lon="1.57848">
        <ele>48.2</ele>
        <time>2010-11-06T13:34:57Z</time>
      </trkpt>
      <trkpt lat="47.58775" lon="1.57899">
        <ele>48</ele>
        <time>2010-11-06T13:35:06Z</time>
      </trkpt>
      <trkpt lat="47.58777" lon="1.57908">
        <ele>47.9</ele>
        <time>2010-11-06T13:35:08Z</time>
      </trkpt>
      <trkpt lat="47.58778" lon="1.57937">
        <ele>47.7</ele>
        <time>2010-11-06T13:35:14Z</time>
      </trkpt>
      <trkpt lat="47.58784" lon="1.58003">
        <ele>47.9</ele>
        <time>2010-11-06T13:35:26Z</time>
      </trkpt>
      <trkpt lat="47.58784" lon="1.58026">
        <ele>48</ele>
        <time>2010-11-06T13:35:31Z</time>
      </trkpt>
      <trkpt lat="47.5876" lon="1.58094">
        <ele>48.8</ele>
        <time>2010-11-06T13:35:46Z</time>
      </trkpt>
      <trkpt lat="47.58741" lon="1.58134">
        <ele>49.3</ele>
        <time>2010-11-06T13:35:55Z</time>
      </trkpt>
      <trkpt lat="47.58727" lon="1.58173">
        <ele>49.8</ele>
        <time>2010-11-06T13:36:04Z</time>
      </trkpt>
      <trkpt lat="47.58705" lon="1.58237">
        <ele>51.4</ele>
        <time>2010-11-06T13:36:17Z</time>
      </trkpt>
      <trkpt lat="47.58671" lon="1.58323">
        <ele>55.5</ele>
        <time>2010-11-06T13:36:35Z</time>
      </trkpt>
      <trkpt lat="47.58565" lon="1.58601">
        <ele>51.4</ele>
        <time>2010-11-06T13:37:22Z</time>
      </trkpt>
      <trkpt lat="47.58539" lon="1.58666">
        <ele>52.4</ele>
        <time>2010-11-06T13:37:32Z</time>
      </trkpt>
      <trkpt lat="47.5846" lon="1.58879">
        <ele>64.7</ele>
        <time>2010-11-06T13:38:03Z</time>
      </trkpt>
      <trkpt lat="47.58439" lon="1.58928">
        <ele>63</ele>
        <time>2010-11-06T13:38:11Z</time>
      </trkpt>
      <trkpt lat="47.58286" lon="1.59327">
        <ele>59.3</ele>
        <time>2010-11-06T13:39:21Z</time>
      </trkpt>
      <trkpt lat="47.58271" lon="1.59369">
        <ele>59.4</ele>
        <time>2010-11-06T13:39:29Z</time>
      </trkpt>
      <trkpt lat="47.5826" lon="1.59393">
        <ele>59.5</ele>
        <time>2010-11-06T13:39:34Z</time>
      </trkpt>
      <trkpt lat="47.58254" lon="1.59415">
        <ele>59.7</ele>
        <time>2010-11-06T13:39:38Z</time>
      </trkpt>
      <trkpt lat="47.58178" lon="1.59607">
        <ele>60.7</ele>
        <time>2010-11-06T13:40:15Z</time>
      </trkpt>
      <trkpt lat="47.58123" lon="1.59752">
        <ele>61.7</ele>
        <time>2010-11-06T13:40:44Z</time>
      </trkpt>
      <trkpt lat="47.58104" lon="1.59799">
        <ele>66.1</ele>
        <time>2010-11-06T13:40:53Z</time>
      </trkpt>
      <trkpt lat="47.58096" lon="1.59814">
        <ele>66.4</ele>
        <time>2010-11-06T13:40:56Z</time>
      </trkpt>
      <trkpt lat="47.58094" lon="1.59827">
        <ele>66.7</ele>
        <time>2010-11-06T13:40:59Z</time>
      </trkpt>
      <trkpt lat="47.58088" lon="1.59847">
        <ele>67.2</ele>
        <time>2010-11-06T13:41:03Z</time>
      </trkpt>
      <trkpt lat="47.58089" lon="1.59856">
        <ele>67.4</ele>
        <time>2010-11-06T13:41:05Z</time>
      </trkpt>
      <trkpt lat="47.58093" lon="1.59865">
        <ele>67.7</ele>
        <time>2010-11-06T13:41:08Z</time>
      </trkpt>
      <trkpt lat="47.58098" lon="1.59871">
        <ele>67.9</ele>
        <time>2010-11-06T13:41:10Z</time>
      </trkpt>
      <trkpt lat="47.58104" lon="1.59873">
        <ele>68.1</ele>
        <time>2010-11-06T13:41:12Z</time>
      </trkpt>
      <trkpt lat="47.58118" lon="1.59892">
        <ele>69.2</ele>
        <time>2010-11-06T13:41:17Z</time>
      </trkpt>
      <trkpt lat="47.58144" lon="1.59922">
        <ele>69.2</ele>
        <time>2010-11-06T13:41:25Z</time>
      </trkpt>
      <trkpt lat="47.58176" lon="1.59952">
        <ele>65.7</ele>
        <time>2010-11-06T13:41:34Z</time>
      </trkpt>
      <trkpt lat="47.58228" lon="1.6001">
        <ele>64</ele>
        <time>2010-11-06T13:41:47Z</time>
      </trkpt>
      <trkpt lat="47.58411" lon="1.60189">
        <ele>67.5</ele>
        <time>2010-11-06T13:42:29Z</time>
      </trkpt>
      <trkpt lat="47.58634" lon="1.60413">
        <ele>62.4</ele>
        <time>2010-11-06T13:43:08Z</time>
      </trkpt>
      <trkpt lat="47.58663" lon="1.60444">
        <ele>62.5</ele>
        <time>2010-11-06T13:43:14Z</time>
      </trkpt>
      <trkpt lat="47.58687" lon="1.60493">
        <ele>63.9</ele>
        <time>2010-11-06T13:43:20Z</time>
      </trkpt>
      <trkpt lat="47.58705" lon="1.60539">
        <ele>63.9</ele>
        <time>2010-11-06T13:43:25Z</time>
      </trkpt>
      <trkpt lat="47.5874" lon="1.60649">
        <ele>61.5</ele>
        <time>2010-11-06T13:43:39Z</time>
      </trkpt>
      <trkpt lat="47.58757" lon="1.60713">
        <ele>60.6</ele>
        <time>2010-11-06T13:43:47Z</time>
      </trkpt>
      <trkpt lat="47.58769" lon="1.60743">
        <ele>60.1</ele>
        <time>2010-11-06T13:43:51Z</time>
      </trkpt>
      <trkpt lat="47.58784" lon="1.60769">
        <ele>60</ele>
        <time>2010-11-06T13:43:55Z</time>
      </trkpt>
      <trkpt lat="47.58842" lon="1.60852">
        <ele>60.7</ele>
        <time>2010-11-06T13:44:09Z</time>
      </trkpt>
      <trkpt lat="47.58854" lon="1.60872">
        <ele>61</ele>
        <time>2010-11-06T13:44:12Z</time>
      </trkpt>
      <trkpt lat="47.58882" lon="1.60928">
        <ele>61.7</ele>
        <time>2010-11-06T13:44:20Z</time>
      </trkpt>
      <trkpt lat="47.58886" lon="1.60935">
        <ele>61.6</ele>
        <time>2010-11-06T13:44:21Z</time>
      </trkpt>
      <trkpt lat="47.58895" lon="1.60945">
        <ele>61.5</ele>
        <time>2010-11-06T13:44:23Z</time>
      </trkpt>
      <trkpt lat="47.58904" lon="1.6095">
        <ele>61.3</ele>
        <time>2010-11-06T13:44:25Z</time>
      </trkpt>
      <trkpt lat="47.58913" lon="1.60951">
        <ele>61.1</ele>
        <time>2010-11-06T13:44:27Z</time>
      </trkpt>
      <trkpt lat="47.58917" lon="1.6095">
        <ele>61.1</ele>
        <time>2010-11-06T13:44:28Z</time>
      </trkpt>
      <trkpt lat="47.58919" lon="1.60947">
        <ele>61.1</ele>
        <time>2010-11-06T13:44:29Z</time>
      </trkpt>
      <trkpt lat="47.58921" lon="1.60933">
        <ele>60.9</ele>
        <time>2010-11-06T13:44:33Z</time>
      </trkpt>
      <trkpt lat="47.58925" lon="1.60927">
        <ele>60.8</ele>
        <time>2010-11-06T13:44:35Z</time>
      </trkpt>
      <trkpt lat="47.58925" lon="1.60923">
        <ele>60.7</ele>
        <time>2010-11-06T13:44:36Z</time>
      </trkpt>
      <trkpt lat="47.58912" lon="1.60881">
        <ele>55.7</ele>
        <time>2010-11-06T13:44:45Z</time>
      </trkpt>
      <trkpt lat="47.58911" lon="1.60871">
        <ele>55.2</ele>
        <time>2010-11-06T13:44:48Z</time>
      </trkpt>
      <trkpt lat="47.58915" lon="1.60854">
        <ele>54.5</ele>
        <time>2010-11-06T13:44:53Z</time>
      </trkpt>
      <trkpt lat="47.58914" lon="1.60846">
        <ele>54.3</ele>
        <time>2010-11-06T13:45:02Z</time>
      </trkpt>
      <trkpt lat="47.58909" lon="1.60833">
        <ele>54.5</ele>
        <time>2010-11-06T13:45:06Z</time>
      </trkpt>
      <trkpt lat="47.58899" lon="1.60815">
        <ele>55.1</ele>
        <time>2010-11-06T13:45:12Z</time>
      </trkpt>
      <trkpt lat="47.58897" lon="1.60801">
        <ele>55.3</ele>
        <time>2010-11-06T13:45:15Z</time>
      </trkpt>
      <trkpt lat="47.58893" lon="1.60766">
        <ele>55.7</ele>
        <time>2010-11-06T13:45:32Z</time>
      </trkpt>
      <trkpt lat="47.58894" lon="1.60742">
        <ele>56</ele>
        <time>2010-11-06T13:45:40Z</time>
      </trkpt>
      <trkpt lat="47.58889" lon="1.60714">
        <ele>57</ele>
        <time>2010-11-06T13:45:47Z</time>
      </trkpt>
      <trkpt lat="47.58891" lon="1.60698">
        <ele>57.9</ele>
        <time>2010-11-06T13:45:52Z</time>
      </trkpt>
      <trkpt lat="47.58896" lon="1.60693">
        <ele>58.3</ele>
        <time>2010-11-06T13:45:55Z</time>
      </trkpt>
      <trkpt lat="47.58926" lon="1.6072">
        <ele>59.3</ele>
        <time>2010-11-06T13:46:08Z</time>
      </trkpt>
      <trkpt lat="47.58947" lon="1.60742">
        <ele>59</ele>
        <time>2010-11-06T13:46:16Z</time>
      </trkpt>
      <trkpt lat="47.5899" lon="1.60779">
        <ele>58.1</ele>
        <time>2010-11-06T13:46:29Z</time>
      </trkpt>
      <trkpt lat="47.59014" lon="1.60805">
        <ele>57.7</ele>
        <time>2010-11-06T13:46:35Z</time>
      </trkpt>
      <trkpt lat="47.59023" lon="1.60824">
        <ele>59.9</ele>
        <time>2010-11-06T13:46:38Z</time>
      </trkpt>
      <trkpt lat="47.59039" lon="1.60878">
        <ele>68</ele>
        <time>2010-11-06T13:46:46Z</time>
      </trkpt>
      <trkpt lat="47.59052" lon="1.60944">
        <ele>71.7</ele>
        <time>2010-11-06T13:46:56Z</time>
      </trkpt>
      <trkpt lat="47.59062" lon="1.61058">
        <ele>68.5</ele>
        <time>2010-11-06T13:47:13Z</time>
      </trkpt>
      <trkpt lat="47.59086" lon="1.61262">
        <ele>64.1</ele>
        <time>2010-11-06T13:47:41Z</time>
      </trkpt>
      <trkpt lat="47.59089" lon="1.61431">
        <ele>72.2</ele>
        <time>2010-11-06T13:48:01Z</time>
      </trkpt>
      <trkpt lat="47.59094" lon="1.61502">
        <ele>71.6</ele>
        <time>2010-11-06T13:48:10Z</time>
      </trkpt>
      <trkpt lat="47.59095" lon="1.61562">
        <ele>71.9</ele>
        <time>2010-11-06T13:48:17Z</time>
      </trkpt>
      <trkpt lat="47.591" lon="1.61635">
        <ele>73.1</ele>
        <time>2010-11-06T13:48:27Z</time>
      </trkpt>
      <trkpt lat="47.59108" lon="1.61704">
        <ele>70.5</ele>
        <time>2010-11-06T13:48:37Z</time>
      </trkpt>
      <trkpt lat="47.59107" lon="1.6171">
        <ele>70.5</ele>
        <time>2010-11-06T13:48:38Z</time>
      </trkpt>
      <trkpt lat="47.59104" lon="1.61714">
        <ele>70.5</ele>
        <time>2010-11-06T13:48:39Z</time>
      </trkpt>
      <trkpt lat="47.59096" lon="1.61718">
        <ele>70.5</ele>
        <time>2010-11-06T13:48:41Z</time>
      </trkpt>
      <trkpt lat="47.59051" lon="1.61717">
        <ele>71.8</ele>
        <time>2010-11-06T13:48:51Z</time>
      </trkpt>
      <trkpt lat="47.5903" lon="1.61709">
        <ele>70.7</ele>
        <time>2010-11-06T13:48:56Z</time>
      </trkpt>
      <trkpt lat="47.59006" lon="1.61705">
        <ele>68.8</ele>
        <time>2010-11-06T13:49:02Z</time>
      </trkpt>
      <trkpt lat="47.58953" lon="1.61691">
        <ele>68.6</ele>
        <time>2010-11-06T13:49:18Z</time>
      </trkpt>
      <trkpt lat="47.58932" lon="1.61687">
        <ele>68.4</ele>
        <time>2010-11-06T13:49:24Z</time>
      </trkpt>
      <trkpt lat="47.58865" lon="1.61669">
        <ele>67.5</ele>
        <time>2010-11-06T13:49:40Z</time>
      </trkpt>
      <trkpt lat="47.58836" lon="1.61664">
        <ele>68.8</ele>
        <time>2010-11-06T13:49:47Z</time>
      </trkpt>
      <trkpt lat="47.58797" lon="1.61652">
        <ele>69.1</ele>
        <time>2010-11-06T13:49:58Z</time>
      </trkpt>
      <trkpt lat="47.58705" lon="1.61632">
        <ele>70.6</ele>
        <time>2010-11-06T13:50:29Z</time>
      </trkpt>
      <trkpt lat="47.58655" lon="1.61616">
        <ele>72.3</ele>
        <time>2010-11-06T13:50:46Z</time>
      </trkpt>
      <trkpt lat="47.58636" lon="1.61612">
        <ele>73</ele>
        <time>2010-11-06T13:50:53Z</time>
      </trkpt>
      <trkpt lat="47.58591" lon="1.61598">
        <ele>74.7</ele>
        <time>2010-11-06T13:51:09Z</time>
      </trkpt>
      <trkpt lat="47.58482" lon="1.61571">
        <ele>77</ele>
        <time>2010-11-06T13:51:44Z</time>
      </trkpt>
      <trkpt lat="47.58436" lon="1.61561">
        <ele>77.9</ele>
        <time>2010-11-06T13:51:57Z</time>
      </trkpt>
      <trkpt lat="47.58327" lon="1.61531">
        <ele>79</ele>
        <time>2010-11-06T13:52:27Z</time>
      </trkpt>
      <trkpt lat="47.58311" lon="1.61528">
        <ele>79.1</ele>
        <time>2010-11-06T13:52:32Z</time>
      </trkpt>
      <trkpt lat="47.58305" lon="1.61522">
        <ele>78.9</ele>
        <time>2010-11-06T13:52:34Z</time>
      </trkpt>
      <trkpt lat="47.58301" lon="1.61512">
        <ele>77.8</ele>
        <time>2010-11-06T13:52:36Z</time>
      </trkpt>
      <trkpt lat="47.58294" lon="1.61483">
        <ele>76</ele>
        <time>2010-11-06T13:52:41Z</time>
      </trkpt>
      <trkpt lat="47.58241" lon="1.61091">
        <ele>69.1</ele>
        <time>2010-11-06T13:53:35Z</time>
      </trkpt>
      <trkpt lat="47.58239" lon="1.61073">
        <ele>69.1</ele>
        <time>2010-11-06T13:53:38Z</time>
      </trkpt>
      <trkpt lat="47.58237" lon="1.61068">
        <ele>69.1</ele>
        <time>2010-11-06T13:53:39Z</time>
      </trkpt>
      <trkpt lat="47.58234" lon="1.61065">
        <ele>69.1</ele>
        <time>2010-11-06T13:53:40Z</time>
      </trkpt>
      <trkpt lat="47.58228" lon="1.61064">
        <ele>69.2</ele>
        <time>2010-11-06T13:53:42Z</time>
      </trkpt>
      <trkpt lat="47.58218" lon="1.61067">
        <ele>70</ele>
        <time>2010-11-06T13:53:45Z</time>
      </trkpt>
      <trkpt lat="47.5818" lon="1.61069">
        <ele>75.9</ele>
        <time>2010-11-06T13:53:53Z</time>
      </trkpt>
      <trkpt lat="47.58164" lon="1.61072">
        <ele>78.1</ele>
        <time>2010-11-06T13:53:57Z</time>
      </trkpt>
      <trkpt lat="47.58091" lon="1.61091">
        <ele>81.7</ele>
        <time>2010-11-06T13:54:13Z</time>
      </trkpt>
      <trkpt lat="47.58053" lon="1.61099">
        <ele>80.1</ele>
        <time>2010-11-06T13:54:20Z</time>
      </trkpt>
      <trkpt lat="47.58021" lon="1.61109">
        <ele>75.7</ele>
        <time>2010-11-06T13:54:26Z</time>
      </trkpt>
      <trkpt lat="47.57981" lon="1.61118">
        <ele>75.3</ele>
        <time>2010-11-06T13:54:34Z</time>
      </trkpt>
      <trkpt lat="47.57946" lon="1.61128">
        <ele>73.2</ele>
        <time>2010-11-06T13:54:41Z</time>
      </trkpt>
      <trkpt lat="47.5791" lon="1.61141">
        <ele>72.7</ele>
        <time>2010-11-06T13:54:49Z</time>
      </trkpt>
      <trkpt lat="47.57822" lon="1.61161">
        <ele>71.2</ele>
        <time>2010-11-06T13:55:10Z</time>
      </trkpt>
      <trkpt lat="47.57779" lon="1.61175">
        <ele>70.1</ele>
        <time>2010-11-06T13:55:22Z</time>
      </trkpt>
      <trkpt lat="47.57707" lon="1.61194">
        <ele>68.6</ele>
        <time>2010-11-06T13:55:40Z</time>
      </trkpt>
      <trkpt lat="47.57673" lon="1.612">
        <ele>67.8</ele>
        <time>2010-11-06T13:55:52Z</time>
      </trkpt>
      <trkpt lat="47.57618" lon="1.61217">
        <ele>66.2</ele>
        <time>2010-11-06T13:56:07Z</time>
      </trkpt>
      <trkpt lat="47.57599" lon="1.61221">
        <ele>65.1</ele>
        <time>2010-11-06T13:56:12Z</time>
      </trkpt>
      <trkpt lat="47.57589" lon="1.61226">
        <ele>64.4</ele>
        <time>2010-11-06T13:56:15Z</time>
      </trkpt>
      <trkpt lat="47.57578" lon="1.61226">
        <ele>63.3</ele>
        <time>2010-11-06T13:56:19Z</time>
      </trkpt>
      <trkpt lat="47.57574" lon="1.61222">
        <ele>61.2</ele>
        <time>2010-11-06T13:56:29Z</time>
      </trkpt>
      <trkpt lat="47.57576" lon="1.61207">
        <ele>59.7</ele>
        <time>2010-11-06T13:56:36Z</time>
      </trkpt>
      <trkpt lat="47.57584" lon="1.61178">
        <ele>58.8</ele>
        <time>2010-11-06T13:56:45Z</time>
      </trkpt>
      <trkpt lat="47.57618" lon="1.61084">
        <ele>56.6</ele>
        <time>2010-11-06T13:57:06Z</time>
      </trkpt>
      <trkpt lat="47.57653" lon="1.60973">
        <ele>56.7</ele>
        <time>2010-11-06T13:57:27Z</time>
      </trkpt>
      <trkpt lat="47.57674" lon="1.60928">
        <ele>57.2</ele>
        <time>2010-11-06T13:57:36Z</time>
      </trkpt>
      <trkpt lat="47.57686" lon="1.60887">
        <ele>58.5</ele>
        <time>2010-11-06T13:57:45Z</time>
      </trkpt>
      <trkpt lat="47.57706" lon="1.60846">
        <ele>59.8</ele>
        <time>2010-11-06T13:57:55Z</time>
      </trkpt>
      <trkpt lat="47.57722" lon="1.608">
        <ele>60.6</ele>
        <time>2010-11-06T13:58:07Z</time>
      </trkpt>
      <trkpt lat="47.57753" lon="1.60726">
        <ele>62.3</ele>
        <time>2010-11-06T13:58:22Z</time>
      </trkpt>
      <trkpt lat="47.57763" lon="1.60688">
        <ele>63.4</ele>
        <time>2010-11-06T13:58:29Z</time>
      </trkpt>
      <trkpt lat="47.57784" lon="1.60632">
        <ele>64.6</ele>
        <time>2010-11-06T13:58:40Z</time>
      </trkpt>
      <trkpt lat="47.57823" lon="1.60541">
        <ele>67.6</ele>
        <time>2010-11-06T13:58:54Z</time>
      </trkpt>
      <trkpt lat="47.57835" lon="1.60517">
        <ele>66.9</ele>
        <time>2010-11-06T13:58:58Z</time>
      </trkpt>
      <trkpt lat="47.57863" lon="1.60449">
        <ele>63.2</ele>
        <time>2010-11-06T13:59:09Z</time>
      </trkpt>
      <trkpt lat="47.57885" lon="1.60387">
        <ele>62.3</ele>
        <time>2010-11-06T13:59:18Z</time>
      </trkpt>
      <trkpt lat="47.57892" lon="1.60358">
        <ele>67.3</ele>
        <time>2010-11-06T13:59:22Z</time>
      </trkpt>
      <trkpt lat="47.57921" lon="1.60265">
        <ele>77.5</ele>
        <time>2010-11-06T13:59:35Z</time>
      </trkpt>
      <trkpt lat="47.57947" lon="1.6021">
        <ele>74.6</ele>
        <time>2010-11-06T13:59:44Z</time>
      </trkpt>
      <trkpt lat="47.57993" lon="1.60093">
        <ele>73.7</ele>
        <time>2010-11-06T14:00:05Z</time>
      </trkpt>
      <trkpt lat="47.58011" lon="1.60051">
        <ele>74.4</ele>
        <time>2010-11-06T14:00:13Z</time>
      </trkpt>
      <trkpt lat="47.58012" lon="1.60025">
        <ele>74</ele>
        <time>2010-11-06T14:00:17Z</time>
      </trkpt>
      <trkpt lat="47.57988" lon="1.59902">
        <ele>68.9</ele>
        <time>2010-11-06T14:00:38Z</time>
      </trkpt>
      <trkpt lat="47.57992" lon="1.59895">
        <ele>68.7</ele>
        <time>2010-11-06T14:00:40Z</time>
      </trkpt>
      <trkpt lat="47.58013" lon="1.59883">
        <ele>68.3</ele>
        <time>2010-11-06T14:00:46Z</time>
      </trkpt>
      <trkpt lat="47.58033" lon="1.59875">
        <ele>69.1</ele>
        <time>2010-11-06T14:00:51Z</time>
      </trkpt>
      <trkpt lat="47.58059" lon="1.59868">
        <ele>69.9</ele>
        <time>2010-11-06T14:00:58Z</time>
      </trkpt>
      <trkpt lat="47.58067" lon="1.59862">
        <ele>69.9</ele>
        <time>2010-11-06T14:01:01Z</time>
      </trkpt>
      <trkpt lat="47.5807" lon="1.59856">
        <ele>69.9</ele>
        <time>2010-11-06T14:01:03Z</time>
      </trkpt>
      <trkpt lat="47.58066" lon="1.59848">
        <ele>69.9</ele>
        <time>2010-11-06T14:01:06Z</time>
      </trkpt>
      <trkpt lat="47.5806" lon="1.59844">
        <ele>69.8</ele>
        <time>2010-11-06T14:01:08Z</time>
      </trkpt>
      <trkpt lat="47.58052" lon="1.59831">
        <ele>68.3</ele>
        <time>2010-11-06T14:01:11Z</time>
      </trkpt>
      <trkpt lat="47.58042" lon="1.5982">
        <ele>66.7</ele>
        <time>2010-11-06T14:01:14Z</time>
      </trkpt>
      <trkpt lat="47.5799" lon="1.59769">
        <ele>62.7</ele>
        <time>2010-11-06T14:01:27Z</time>
      </trkpt>
      <trkpt lat="47.57946" lon="1.59721">
        <ele>60.6</ele>
        <time>2010-11-06T14:01:38Z</time>
      </trkpt>
      <trkpt lat="47.57873" lon="1.59651">
        <ele>60.7</ele>
        <time>2010-11-06T14:01:52Z</time>
      </trkpt>
      <trkpt lat="47.57761" lon="1.59539">
        <ele>61.4</ele>
        <time>2010-11-06T14:02:12Z</time>
      </trkpt>
      <trkpt lat="47.57593" lon="1.59367">
        <ele>60.3</ele>
        <time>2010-11-06T14:02:40Z</time>
      </trkpt>
      <trkpt lat="47.57463" lon="1.59241">
        <ele>59.4</ele>
        <time>2010-11-06T14:03:01Z</time>
      </trkpt>
      <trkpt lat="47.57462" lon="1.59236">
        <ele>59.4</ele>
        <time>2010-11-06T14:03:02Z</time>
      </trkpt>
      <trkpt lat="47.57466" lon="1.59226">
        <ele>59.5</ele>
        <time>2010-11-06T14:03:06Z</time>
      </trkpt>
      <trkpt lat="47.57519" lon="1.59208">
        <ele>58.1</ele>
        <time>2010-11-06T14:03:23Z</time>
      </trkpt>
      <trkpt lat="47.57559" lon="1.59198">
        <ele>57</ele>
        <time>2010-11-06T14:03:33Z</time>
      </trkpt>
      <trkpt lat="47.5757" lon="1.59193">
        <ele>57</ele>
        <time>2010-11-06T14:03:37Z</time>
      </trkpt>
      <trkpt lat="47.57579" lon="1.59188">
        <ele>57.3</ele>
        <time>2010-11-06T14:03:41Z</time>
      </trkpt>
      <trkpt lat="47.5761" lon="1.59179">
        <ele>62.2</ele>
        <time>2010-11-06T14:03:57Z</time>
      </trkpt>
      <trkpt lat="47.57627" lon="1.5917">
        <ele>65.4</ele>
        <time>2010-11-06T14:04:07Z</time>
      </trkpt>
      <trkpt lat="47.57629" lon="1.59168">
        <ele>65.8</ele>
        <time>2010-11-06T14:04:08Z</time>
      </trkpt>
      <trkpt lat="47.57638" lon="1.59146">
        <ele>68.9</ele>
        <time>2010-11-06T14:04:16Z</time>
      </trkpt>
      <trkpt lat="47.57643" lon="1.59137">
        <ele>69.8</ele>
        <time>2010-11-06T14:04:19Z</time>
      </trkpt>
      <trkpt lat="47.57653" lon="1.5913">
        <ele>70.6</ele>
        <time>2010-11-06T14:04:23Z</time>
      </trkpt>
      <trkpt lat="47.57661" lon="1.59125">
        <ele>70.8</ele>
        <time>2010-11-06T14:04:26Z</time>
      </trkpt>
      <trkpt lat="47.5768" lon="1.59117">
        <ele>71.2</ele>
        <time>2010-11-06T14:04:32Z</time>
      </trkpt>
      <trkpt lat="47.57725" lon="1.59118">
        <ele>71.7</ele>
        <time>2010-11-06T14:04:33Z</time>
      </trkpt>
      <trkpt lat="47.57751" lon="1.59104">
        <ele>73.6</ele>
        <time>2010-11-06T14:04:44Z</time>
      </trkpt>
      <trkpt lat="47.57759" lon="1.59095">
        <ele>73.9</ele>
        <time>2010-11-06T14:04:47Z</time>
      </trkpt>
      <trkpt lat="47.5776" lon="1.59091">
        <ele>73.9</ele>
        <time>2010-11-06T14:04:48Z</time>
      </trkpt>
      <trkpt lat="47.57752" lon="1.59065">
        <ele>74.1</ele>
        <time>2010-11-06T14:04:53Z</time>
      </trkpt>
      <trkpt lat="47.57749" lon="1.59042">
        <ele>74.2</ele>
        <time>2010-11-06T14:04:57Z</time>
      </trkpt>
      <trkpt lat="47.57746" lon="1.5899">
        <ele>74.1</ele>
        <time>2010-11-06T14:05:10Z</time>
      </trkpt>
      <trkpt lat="47.57732" lon="1.58859">
        <ele>73.4</ele>
        <time>2010-11-06T14:05:37Z</time>
      </trkpt>
      <trkpt lat="47.57721" lon="1.58722">
        <ele>72.9</ele>
        <time>2010-11-06T14:06:00Z</time>
      </trkpt>
      <trkpt lat="47.57721" lon="1.58706">
        <ele>72.9</ele>
        <time>2010-11-06T14:06:03Z</time>
      </trkpt>
      <trkpt lat="47.57726" lon="1.58677">
        <ele>73.1</ele>
        <time>2010-11-06T14:06:08Z</time>
      </trkpt>
      <trkpt lat="47.5774" lon="1.5857">
        <ele>69.2</ele>
        <time>2010-11-06T14:06:21Z</time>
      </trkpt>
      <trkpt lat="47.57739" lon="1.58557">
        <ele>69.2</ele>
        <time>2010-11-06T14:06:23Z</time>
      </trkpt>
      <trkpt lat="47.57723" lon="1.58538">
        <ele>69.4</ele>
        <time>2010-11-06T14:06:27Z</time>
      </trkpt>
      <trkpt lat="47.57669" lon="1.58433">
        <ele>70.5</ele>
        <time>2010-11-06T14:06:41Z</time>
      </trkpt>
      <trkpt lat="47.57644" lon="1.5839">
        <ele>69.8</ele>
        <time>2010-11-06T14:06:47Z</time>
      </trkpt>
      <trkpt lat="47.57624" lon="1.58352">
        <ele>69.3</ele>
        <time>2010-11-06T14:06:52Z</time>
      </trkpt>
      <trkpt lat="47.57582" lon="1.5825">
        <ele>66.2</ele>
        <time>2010-11-06T14:07:05Z</time>
      </trkpt>
      <trkpt lat="47.57548" lon="1.58174">
        <ele>63</ele>
        <time>2010-11-06T14:07:17Z</time>
      </trkpt>
      <trkpt lat="47.57523" lon="1.5811">
        <ele>61.5</ele>
        <time>2010-11-06T14:07:28Z</time>
      </trkpt>
      <trkpt lat="47.57518" lon="1.58083">
        <ele>60.8</ele>
        <time>2010-11-06T14:07:33Z</time>
      </trkpt>
      <trkpt lat="47.57505" lon="1.58031">
        <ele>58.9</ele>
        <time>2010-11-06T14:07:41Z</time>
      </trkpt>
      <trkpt lat="47.575" lon="1.57976">
        <ele>57.7</ele>
        <time>2010-11-06T14:07:49Z</time>
      </trkpt>
      <trkpt lat="47.57499" lon="1.57907">
        <ele>57</ele>
        <time>2010-11-06T14:08:01Z</time>
      </trkpt>
      <trkpt lat="47.57497" lon="1.57889">
        <ele>57</ele>
        <time>2010-11-06T14:08:06Z</time>
      </trkpt>
      <trkpt lat="47.575" lon="1.57869">
        <ele>56.2</ele>
        <time>2010-11-06T14:08:31Z</time>
      </trkpt>
      <trkpt lat="47.57497" lon="1.57764">
        <ele>50.5</ele>
        <time>2010-11-06T14:09:00Z</time>
      </trkpt>
      <trkpt lat="47.57498" lon="1.57753">
        <ele>50.3</ele>
        <time>2010-11-06T14:09:02Z</time>
      </trkpt>
      <trkpt lat="47.57497" lon="1.57742">
        <ele>50.2</ele>
        <time>2010-11-06T14:09:04Z</time>
      </trkpt>
      <trkpt lat="47.575" lon="1.5772">
        <ele>48.9</ele>
        <time>2010-11-06T14:09:08Z</time>
      </trkpt>
      <trkpt lat="47.57499" lon="1.57678">
        <ele>47.8</ele>
        <time>2010-11-06T14:09:15Z</time>
      </trkpt>
      <trkpt lat="47.57499" lon="1.57661">
        <ele>47.2</ele>
        <time>2010-11-06T14:09:18Z</time>
      </trkpt>
      <trkpt lat="47.57492" lon="1.57618">
        <ele>44.1</ele>
        <time>2010-11-06T14:09:25Z</time>
      </trkpt>
      <trkpt lat="47.5749" lon="1.57609">
        <ele>44</ele>
        <time>2010-11-06T14:09:27Z</time>
      </trkpt>
      <trkpt lat="47.57484" lon="1.57572">
        <ele>42.4</ele>
        <time>2010-11-06T14:09:34Z</time>
      </trkpt>
      <trkpt lat="47.57477" lon="1.57545">
        <ele>41.9</ele>
        <time>2010-11-06T14:09:38Z</time>
      </trkpt>
      <trkpt lat="47.57469" lon="1.57497">
        <ele>41.9</ele>
        <time>2010-11-06T14:09:46Z</time>
      </trkpt>
      <trkpt lat="47.57455" lon="1.57448">
        <ele>42.1</ele>
        <time>2010-11-06T14:09:55Z</time>
      </trkpt>
      <trkpt lat="47.57449" lon="1.57417">
        <ele>42.2</ele>
        <time>2010-11-06T14:10:01Z</time>
      </trkpt>
      <trkpt lat="47.57429" lon="1.57335">
        <ele>50.8</ele>
        <time>2010-11-06T14:10:11Z</time>
      </trkpt>
      <trkpt lat="47.57403" lon="1.57292">
        <ele>56.5</ele>
        <time>2010-11-06T14:10:24Z</time>
      </trkpt>
      <trkpt lat="47.57383" lon="1.57271">
        <ele>58.5</ele>
        <time>2010-11-06T14:10:30Z</time>
      </trkpt>
      <trkpt lat="47.57372" lon="1.57255">
        <ele>58.4</ele>
        <time>2010-11-06T14:10:33Z</time>
      </trkpt>
      <trkpt lat="47.57358" lon="1.57231">
        <ele>58.8</ele>
        <time>2010-11-06T14:10:37Z</time>
      </trkpt>
      <trkpt lat="47.57354" lon="1.57217">
        <ele>59.3</ele>
        <time>2010-11-06T14:10:39Z</time>
      </trkpt>
      <trkpt lat="47.57348" lon="1.5719">
        <ele>59.6</ele>
        <time>2010-11-06T14:10:43Z</time>
      </trkpt>
      <trkpt lat="47.57338" lon="1.57154">
        <ele>58.2</ele>
        <time>2010-11-06T14:10:49Z</time>
      </trkpt>
      <trkpt lat="47.57323" lon="1.5709">
        <ele>56</ele>
        <time>2010-11-06T14:10:58Z</time>
      </trkpt>
      <trkpt lat="47.57318" lon="1.57035">
        <ele>53.9</ele>
        <time>2010-11-06T14:11:07Z</time>
      </trkpt>
      <trkpt lat="47.57314" lon="1.56975">
        <ele>52.1</ele>
        <time>2010-11-06T14:11:16Z</time>
      </trkpt>
      <trkpt lat="47.57298" lon="1.56909">
        <ele>49.6</ele>
        <time>2010-11-06T14:11:29Z</time>
      </trkpt>
      <trkpt lat="47.57291" lon="1.56894">
        <ele>48.7</ele>
        <time>2010-11-06T14:11:32Z</time>
      </trkpt>
      <trkpt lat="47.57266" lon="1.56857">
        <ele>48.9</ele>
        <time>2010-11-06T14:11:39Z</time>
      </trkpt>
      <trkpt lat="47.57243" lon="1.56811">
        <ele>47.9</ele>
        <time>2010-11-06T14:11:49Z</time>
      </trkpt>
      <trkpt lat="47.57224" lon="1.5677">
        <ele>45.9</ele>
        <time>2010-11-06T14:11:57Z</time>
      </trkpt>
      <trkpt lat="47.57202" lon="1.56715">
        <ele>43.1</ele>
        <time>2010-11-06T14:12:07Z</time>
      </trkpt>
      <trkpt lat="47.57186" lon="1.56685">
        <ele>43.2</ele>
        <time>2010-11-06T14:12:13Z</time>
      </trkpt>
      <trkpt lat="47.57178" lon="1.56644">
        <ele>43.2</ele>
        <time>2010-11-06T14:12:22Z</time>
      </trkpt>
      <trkpt lat="47.57175" lon="1.56635">
        <ele>43.3</ele>
        <time>2010-11-06T14:12:24Z</time>
      </trkpt>
      <trkpt lat="47.57173" lon="1.56629">
        <ele>43.3</ele>
        <time>2010-11-06T14:12:26Z</time>
      </trkpt>
      <trkpt lat="47.57166" lon="1.56621">
        <ele>43.4</ele>
        <time>2010-11-06T14:12:29Z</time>
      </trkpt>
      <trkpt lat="47.57155" lon="1.56602">
        <ele>43.3</ele>
        <time>2010-11-06T14:12:33Z</time>
      </trkpt>
      <trkpt lat="47.57139" lon="1.56566">
        <ele>43.8</ele>
        <time>2010-11-06T14:12:40Z</time>
      </trkpt>
      <trkpt lat="47.57117" lon="1.56548">
        <ele>45.2</ele>
        <time>2010-11-06T14:12:46Z</time>
      </trkpt>
      <trkpt lat="47.57099" lon="1.56524">
        <ele>46.8</ele>
        <time>2010-11-06T14:12:51Z</time>
      </trkpt>
      <trkpt lat="47.57087" lon="1.56515">
        <ele>47.5</ele>
        <time>2010-11-06T14:12:54Z</time>
      </trkpt>
      <trkpt lat="47.57047" lon="1.5646">
        <ele>45.9</ele>
        <time>2010-11-06T14:13:06Z</time>
      </trkpt>
      <trkpt lat="47.56997" lon="1.56396">
        <ele>48.2</ele>
        <time>2010-11-06T14:13:21Z</time>
      </trkpt>
      <trkpt lat="47.56968" lon="1.56365">
        <ele>47.8</ele>
        <time>2010-11-06T14:13:29Z</time>
      </trkpt>
      <trkpt lat="47.56892" lon="1.56253">
        <ele>56.5</ele>
        <time>2010-11-06T14:13:49Z</time>
      </trkpt>
      <trkpt lat="47.56841" lon="1.56204">
        <ele>52.4</ele>
        <time>2010-11-06T14:13:59Z</time>
      </trkpt>
      <trkpt lat="47.56817" lon="1.5617">
        <ele>50.4</ele>
        <time>2010-11-06T14:14:04Z</time>
      </trkpt>
      <trkpt lat="47.56799" lon="1.56126">
        <ele>47.9</ele>
        <time>2010-11-06T14:14:10Z</time>
      </trkpt>
      <trkpt lat="47.56784" lon="1.56103">
        <ele>47.6</ele>
        <time>2010-11-06T14:14:16Z</time>
      </trkpt>
      <trkpt lat="47.56776" lon="1.56078">
        <ele>45.4</ele>
        <time>2010-11-06T14:14:20Z</time>
      </trkpt>
      <trkpt lat="47.56764" lon="1.56052">
        <ele>42.5</ele>
        <time>2010-11-06T14:14:24Z</time>
      </trkpt>
      <trkpt lat="47.56748" lon="1.56014">
        <ele>39.5</ele>
        <time>2010-11-06T14:14:29Z</time>
      </trkpt>
      <trkpt lat="47.5672" lon="1.55919">
        <ele>37.3</ele>
        <time>2010-11-06T14:14:40Z</time>
      </trkpt>
      <trkpt lat="47.567" lon="1.55867">
        <ele>37.1</ele>
        <time>2010-11-06T14:14:47Z</time>
      </trkpt>
      <trkpt lat="47.56685" lon="1.55802">
        <ele>36.4</ele>
        <time>2010-11-06T14:14:55Z</time>
      </trkpt>
      <trkpt lat="47.56662" lon="1.55723">
        <ele>37</ele>
        <time>2010-11-06T14:15:05Z</time>
      </trkpt>
      <trkpt lat="47.56612" lon="1.55594">
        <ele>34</ele>
        <time>2010-11-06T14:15:24Z</time>
      </trkpt>
      <trkpt lat="47.5659" lon="1.55523">
        <ele>34.6</ele>
        <time>2010-11-06T14:15:37Z</time>
      </trkpt>
      <trkpt lat="47.56545" lon="1.55417">
        <ele>33.9</ele>
        <time>2010-11-06T14:15:54Z</time>
      </trkpt>
      <trkpt lat="47.5654" lon="1.55411">
        <ele>34.2</ele>
        <time>2010-11-06T14:15:55Z</time>
      </trkpt>
      <trkpt lat="47.5652" lon="1.55396">
        <ele>35.4</ele>
        <time>2010-11-06T14:15:59Z</time>
      </trkpt>
      <trkpt lat="47.56505" lon="1.55381">
        <ele>37.4</ele>
        <time>2010-11-06T14:16:02Z</time>
      </trkpt>
      <trkpt lat="47.56501" lon="1.55368">
        <ele>39.3</ele>
        <time>2010-11-06T14:16:04Z</time>
      </trkpt>
      <trkpt lat="47.56502" lon="1.55354">
        <ele>40.1</ele>
        <time>2010-11-06T14:16:06Z</time>
      </trkpt>
      <trkpt lat="47.56519" lon="1.553">
        <ele>39.2</ele>
        <time>2010-11-06T14:16:14Z</time>
      </trkpt>
      <trkpt lat="47.56523" lon="1.55269">
        <ele>45.9</ele>
        <time>2010-11-06T14:16:18Z</time>
      </trkpt>
      <trkpt lat="47.56536" lon="1.55219">
        <ele>46.3</ele>
        <time>2010-11-06T14:16:26Z</time>
      </trkpt>
      <trkpt lat="47.56565" lon="1.55144">
        <ele>41.4</ele>
        <time>2010-11-06T14:16:41Z</time>
      </trkpt>
      <trkpt lat="47.56596" lon="1.55075">
        <ele>42.1</ele>
        <time>2010-11-06T14:16:57Z</time>
      </trkpt>
      <trkpt lat="47.56608" lon="1.55036">
        <ele>44.8</ele>
        <time>2010-11-06T14:17:03Z</time>
      </trkpt>
      <trkpt lat="47.56618" lon="1.54994">
        <ele>50.6</ele>
        <time>2010-11-06T14:17:09Z</time>
      </trkpt>
      <trkpt lat="47.5663" lon="1.54958">
        <ele>50.9</ele>
        <time>2010-11-06T14:17:16Z</time>
      </trkpt>
      <trkpt lat="47.56665" lon="1.54878">
        <ele>47.3</ele>
        <time>2010-11-06T14:17:31Z</time>
      </trkpt>
      <trkpt lat="47.56674" lon="1.54854">
        <ele>45.4</ele>
        <time>2010-11-06T14:17:35Z</time>
      </trkpt>
      <trkpt lat="47.56683" lon="1.54824">
        <ele>47</ele>
        <time>2010-11-06T14:17:40Z</time>
      </trkpt>
      <trkpt lat="47.56698" lon="1.54781">
        <ele>48.6</ele>
        <time>2010-11-06T14:17:48Z</time>
      </trkpt>
      <trkpt lat="47.56739" lon="1.54682">
        <ele>42.3</ele>
        <time>2010-11-06T14:18:05Z</time>
      </trkpt>
      <trkpt lat="47.5675" lon="1.54646">
        <ele>44.7</ele>
        <time>2010-11-06T14:18:10Z</time>
      </trkpt>
      <trkpt lat="47.56765" lon="1.5461">
        <ele>45.1</ele>
        <time>2010-11-06T14:18:16Z</time>
      </trkpt>
      <trkpt lat="47.56776" lon="1.5457">
        <ele>56.7</ele>
        <time>2010-11-06T14:18:21Z</time>
      </trkpt>
      <trkpt lat="47.56791" lon="1.54526">
        <ele>57.3</ele>
        <time>2010-11-06T14:18:27Z</time>
      </trkpt>
      <trkpt lat="47.568" lon="1.54494">
        <ele>59.2</ele>
        <time>2010-11-06T14:18:32Z</time>
      </trkpt>
      <trkpt lat="47.56833" lon="1.54418">
        <ele>53.3</ele>
        <time>2010-11-06T14:18:46Z</time>
      </trkpt>
      <trkpt lat="47.56857" lon="1.54351">
        <ele>57.6</ele>
        <time>2010-11-06T14:18:57Z</time>
      </trkpt>
      <trkpt lat="47.56861" lon="1.5433">
        <ele>58.8</ele>
        <time>2010-11-06T14:19:00Z</time>
      </trkpt>
      <trkpt lat="47.56882" lon="1.54264">
        <ele>63.4</ele>
        <time>2010-11-06T14:19:11Z</time>
      </trkpt>
      <trkpt lat="47.56888" lon="1.54244">
        <ele>67</ele>
        <time>2010-11-06T14:19:14Z</time>
      </trkpt>
      <trkpt lat="47.56912" lon="1.54172">
        <ele>73.2</ele>
        <time>2010-11-06T14:19:26Z</time>
      </trkpt>
      <trkpt lat="47.56957" lon="1.54066">
        <ele>56.2</ele>
        <time>2010-11-06T14:19:42Z</time>
      </trkpt>
      <trkpt lat="47.57004" lon="1.53952">
        <ele>51.7</ele>
        <time>2010-11-06T14:19:59Z</time>
      </trkpt>
      <trkpt lat="47.57025" lon="1.53889">
        <ele>57.8</ele>
        <time>2010-11-06T14:20:09Z</time>
      </trkpt>
      <trkpt lat="47.57045" lon="1.53843">
        <ele>61.3</ele>
        <time>2010-11-06T14:20:17Z</time>
      </trkpt>
      <trkpt lat="47.57054" lon="1.53809">
        <ele>64.8</ele>
        <time>2010-11-06T14:20:22Z</time>
      </trkpt>
      <trkpt lat="47.57069" lon="1.53765">
        <ele>65</ele>
        <time>2010-11-06T14:20:31Z</time>
      </trkpt>
      <trkpt lat="47.57099" lon="1.53688">
        <ele>65</ele>
        <time>2010-11-06T14:20:46Z</time>
      </trkpt>
      <trkpt lat="47.5712" lon="1.53643">
        <ele>65</ele>
        <time>2010-11-06T14:20:56Z</time>
      </trkpt>
      <trkpt lat="47.5717" lon="1.53514">
        <ele>63.6</ele>
        <time>2010-11-06T14:21:23Z</time>
      </trkpt>
      <trkpt lat="47.5718" lon="1.53489">
        <ele>63.6</ele>
        <time>2010-11-06T14:21:28Z</time>
      </trkpt>
      <trkpt lat="47.57195" lon="1.53441">
        <ele>64</ele>
        <time>2010-11-06T14:21:37Z</time>
      </trkpt>
      <trkpt lat="47.5721" lon="1.53406">
        <ele>63.7</ele>
        <time>2010-11-06T14:21:46Z</time>
      </trkpt>
      <trkpt lat="47.57244" lon="1.53305">
        <ele>63.1</ele>
        <time>2010-11-06T14:22:18Z</time>
      </trkpt>
      <trkpt lat="47.57249" lon="1.53294">
        <ele>63.3</ele>
        <time>2010-11-06T14:22:39Z</time>
      </trkpt>
      <trkpt lat="47.57249" lon="1.53287">
        <ele>63.2</ele>
        <time>2010-11-06T14:22:43Z</time>
      </trkpt>
      <trkpt lat="47.57245" lon="1.53281">
        <ele>63</ele>
        <time>2010-11-06T14:22:46Z</time>
      </trkpt>
      <trkpt lat="47.57235" lon="1.53256">
        <ele>62.5</ele>
        <time>2010-11-06T14:22:53Z</time>
      </trkpt>
      <trkpt lat="47.57228" lon="1.53248">
        <ele>62.3</ele>
        <time>2010-11-06T14:22:56Z</time>
      </trkpt>
      <trkpt lat="47.57218" lon="1.53227">
        <ele>62.1</ele>
        <time>2010-11-06T14:23:02Z</time>
      </trkpt>
      <trkpt lat="47.57165" lon="1.53147">
        <ele>60.1</ele>
        <time>2010-11-06T14:23:26Z</time>
      </trkpt>
      <trkpt lat="47.57103" lon="1.53045">
        <ele>53</ele>
        <time>2010-11-06T14:23:48Z</time>
      </trkpt>
      <trkpt lat="47.57075" lon="1.53005">
        <ele>51.6</ele>
        <time>2010-11-06T14:23:56Z</time>
      </trkpt>
      <trkpt lat="47.57023" lon="1.5292">
        <ele>49.5</ele>
        <time>2010-11-06T14:24:12Z</time>
      </trkpt>
      <trkpt lat="47.5679" lon="1.52557">
        <ele>44.9</ele>
        <time>2010-11-06T14:25:37Z</time>
      </trkpt>
      <trkpt lat="47.5679" lon="1.52548">
        <ele>45</ele>
        <time>2010-11-06T14:25:39Z</time>
      </trkpt>
      <trkpt lat="47.56792" lon="1.52545">
        <ele>45.1</ele>
        <time>2010-11-06T14:25:40Z</time>
      </trkpt>
      <trkpt lat="47.56808" lon="1.52527">
        <ele>47.8</ele>
        <time>2010-11-06T14:25:46Z</time>
      </trkpt>
      <trkpt lat="47.56814" lon="1.52518">
        <ele>48.6</ele>
        <time>2010-11-06T14:25:49Z</time>
      </trkpt>
      <trkpt lat="47.56826" lon="1.52488">
        <ele>53.5</ele>
        <time>2010-11-06T14:25:55Z</time>
      </trkpt>
      <trkpt lat="47.5684" lon="1.52468">
        <ele>51.7</ele>
        <time>2010-11-06T14:26:00Z</time>
      </trkpt>
      <trkpt lat="47.56934" lon="1.52378">
        <ele>47.1</ele>
        <time>2010-11-06T14:26:29Z</time>
      </trkpt>
      <trkpt lat="47.56961" lon="1.52349">
        <ele>48</ele>
        <time>2010-11-06T14:26:38Z</time>
      </trkpt>
      <trkpt lat="47.57063" lon="1.52257">
        <ele>50.8</ele>
        <time>2010-11-06T14:27:06Z</time>
      </trkpt>
      <trkpt lat="47.57082" lon="1.52242">
        <ele>50.8</ele>
        <time>2010-11-06T14:27:11Z</time>
      </trkpt>
      <trkpt lat="47.57098" lon="1.52224">
        <ele>50.8</ele>
        <time>2010-11-06T14:27:16Z</time>
      </trkpt>
      <trkpt lat="47.5711" lon="1.52214">
        <ele>50.9</ele>
        <time>2010-11-06T14:27:21Z</time>
      </trkpt>
      <trkpt lat="47.57116" lon="1.52212">
        <ele>50.9</ele>
        <time>2010-11-06T14:27:24Z</time>
      </trkpt>
      <trkpt lat="47.57128" lon="1.52213">
        <ele>51.3</ele>
        <time>2010-11-06T14:30:09Z</time>
      </trkpt>
      <trkpt lat="47.5714" lon="1.52207">
        <ele>51.3</ele>
        <time>2010-11-06T14:30:19Z</time>
      </trkpt>
      <trkpt lat="47.57136" lon="1.52206">
        <ele>53.2</ele>
        <time>2010-11-06T14:31:27Z</time>
      </trkpt>
      <trkpt lat="47.57116" lon="1.52211">
        <ele>54.5</ele>
        <time>2010-11-06T14:31:39Z</time>
      </trkpt>
      <trkpt lat="47.57096" lon="1.52204">
        <ele>54.9</ele>
        <time>2010-11-06T14:31:45Z</time>
      </trkpt>
      <trkpt lat="47.57077" lon="1.522">
        <ele>56.7</ele>
        <time>2010-11-06T14:31:50Z</time>
      </trkpt>
      <trkpt lat="47.57051" lon="1.52188">
        <ele>56.9</ele>
        <time>2010-11-06T14:31:58Z</time>
      </trkpt>
      <trkpt lat="47.57016" lon="1.52175">
        <ele>56.8</ele>
        <time>2010-11-06T14:32:08Z</time>
      </trkpt>
      <trkpt lat="47.5697" lon="1.5216">
        <ele>56.3</ele>
        <time>2010-11-06T14:32:21Z</time>
      </trkpt>
      <trkpt lat="47.56932" lon="1.52151">
        <ele>53.3</ele>
        <time>2010-11-06T14:32:32Z</time>
      </trkpt>
      <trkpt lat="47.56855" lon="1.52124">
        <ele>47.1</ele>
        <time>2010-11-06T14:32:48Z</time>
      </trkpt>
      <trkpt lat="47.56841" lon="1.52122">
        <ele>47.3</ele>
        <time>2010-11-06T14:32:52Z</time>
      </trkpt>
      <trkpt lat="47.56762" lon="1.52097">
        <ele>45.9</ele>
        <time>2010-11-06T14:33:13Z</time>
      </trkpt>
      <trkpt lat="47.56735" lon="1.5209">
        <ele>45</ele>
        <time>2010-11-06T14:33:22Z</time>
      </trkpt>
      <trkpt lat="47.56696" lon="1.52076">
        <ele>44.6</ele>
        <time>2010-11-06T14:33:34Z</time>
      </trkpt>
      <trkpt lat="47.56685" lon="1.52074">
        <ele>44.4</ele>
        <time>2010-11-06T14:33:37Z</time>
      </trkpt>
      <trkpt lat="47.56624" lon="1.52054">
        <ele>45.9</ele>
        <time>2010-11-06T14:33:49Z</time>
      </trkpt>
      <trkpt lat="47.56606" lon="1.5205">
        <ele>45.9</ele>
        <time>2010-11-06T14:33:54Z</time>
      </trkpt>
      <trkpt lat="47.56533" lon="1.52025">
        <ele>49.1</ele>
        <time>2010-11-06T14:34:12Z</time>
      </trkpt>
      <trkpt lat="47.56478" lon="1.52008">
        <ele>49.9</ele>
        <time>2010-11-06T14:34:26Z</time>
      </trkpt>
      <trkpt lat="47.56468" lon="1.52006">
        <ele>50</ele>
        <time>2010-11-06T14:34:32Z</time>
      </trkpt>
      <trkpt lat="47.5646" lon="1.52007">
        <ele>49.7</ele>
        <time>2010-11-06T14:34:35Z</time>
      </trkpt>
      <trkpt lat="47.5645" lon="1.52">
        <ele>49.2</ele>
        <time>2010-11-06T14:34:39Z</time>
      </trkpt>
      <trkpt lat="47.56431" lon="1.51971">
        <ele>48.3</ele>
        <time>2010-11-06T14:34:46Z</time>
      </trkpt>
      <trkpt lat="47.56412" lon="1.51948">
        <ele>48.5</ele>
        <time>2010-11-06T14:34:51Z</time>
      </trkpt>
      <trkpt lat="47.56384" lon="1.51905">
        <ele>48.7</ele>
        <time>2010-11-06T14:35:02Z</time>
      </trkpt>
      <trkpt lat="47.56366" lon="1.51881">
        <ele>49.2</ele>
        <time>2010-11-06T14:35:07Z</time>
      </trkpt>
      <trkpt lat="47.56143" lon="1.51542">
        <ele>42</ele>
        <time>2010-11-06T14:36:03Z</time>
      </trkpt>
      <trkpt lat="47.56112" lon="1.515">
        <ele>43.4</ele>
        <time>2010-11-06T14:36:11Z</time>
      </trkpt>
      <trkpt lat="47.56079" lon="1.51444">
        <ele>43.7</ele>
        <time>2010-11-06T14:36:23Z</time>
      </trkpt>
      <trkpt lat="47.56083" lon="1.51412">
        <ele>45.8</ele>
        <time>2010-11-06T14:36:28Z</time>
      </trkpt>
      <trkpt lat="47.56095" lon="1.51359">
        <ele>47.6</ele>
        <time>2010-11-06T14:36:36Z</time>
      </trkpt>
      <trkpt lat="47.56111" lon="1.51299">
        <ele>49.1</ele>
        <time>2010-11-06T14:36:45Z</time>
      </trkpt>
      <trkpt lat="47.56118" lon="1.51264">
        <ele>50.7</ele>
        <time>2010-11-06T14:36:50Z</time>
      </trkpt>
      <trkpt lat="47.56138" lon="1.51199">
        <ele>47.5</ele>
        <time>2010-11-06T14:37:01Z</time>
      </trkpt>
      <trkpt lat="47.56142" lon="1.5119">
        <ele>47.4</ele>
        <time>2010-11-06T14:37:03Z</time>
      </trkpt>
      <trkpt lat="47.56152" lon="1.51177">
        <ele>47.2</ele>
        <time>2010-11-06T14:37:07Z</time>
      </trkpt>
      <trkpt lat="47.56153" lon="1.51165">
        <ele>47</ele>
        <time>2010-11-06T14:37:10Z</time>
      </trkpt>
      <trkpt lat="47.5616" lon="1.51143">
        <ele>48.5</ele>
        <time>2010-11-06T14:37:14Z</time>
      </trkpt>
      <trkpt lat="47.56162" lon="1.51124">
        <ele>52.6</ele>
        <time>2010-11-06T14:37:16Z</time>
      </trkpt>
      <trkpt lat="47.5616" lon="1.5108">
        <ele>61.1</ele>
        <time>2010-11-06T14:37:22Z</time>
      </trkpt>
      <trkpt lat="47.56166" lon="1.51048">
        <ele>61.5</ele>
        <time>2010-11-06T14:37:27Z</time>
      </trkpt>
      <trkpt lat="47.56172" lon="1.51037">
        <ele>60.9</ele>
        <time>2010-11-06T14:37:29Z</time>
      </trkpt>
      <trkpt lat="47.56177" lon="1.51018">
        <ele>59.1</ele>
        <time>2010-11-06T14:37:32Z</time>
      </trkpt>
      <trkpt lat="47.562" lon="1.50963">
        <ele>56.3</ele>
        <time>2010-11-06T14:37:44Z</time>
      </trkpt>
      <trkpt lat="47.56213" lon="1.50925">
        <ele>53.1</ele>
        <time>2010-11-06T14:37:51Z</time>
      </trkpt>
      <trkpt lat="47.5623" lon="1.50832">
        <ele>54.4</ele>
        <time>2010-11-06T14:38:05Z</time>
      </trkpt>
      <trkpt lat="47.5624" lon="1.50801">
        <ele>58.6</ele>
        <time>2010-11-06T14:38:11Z</time>
      </trkpt>
      <trkpt lat="47.56263" lon="1.50756">
        <ele>60.4</ele>
        <time>2010-11-06T14:38:21Z</time>
      </trkpt>
      <trkpt lat="47.56285" lon="1.50683">
        <ele>62</ele>
        <time>2010-11-06T14:38:36Z</time>
      </trkpt>
      <trkpt lat="47.56321" lon="1.50594">
        <ele>62.6</ele>
        <time>2010-11-06T14:38:55Z</time>
      </trkpt>
      <trkpt lat="47.56324" lon="1.50577">
        <ele>62.9</ele>
        <time>2010-11-06T14:38:58Z</time>
      </trkpt>
      <trkpt lat="47.5634" lon="1.50541">
        <ele>63.7</ele>
        <time>2010-11-06T14:39:05Z</time>
      </trkpt>
      <trkpt lat="47.5634" lon="1.50534">
        <ele>63.9</ele>
        <time>2010-11-06T14:39:06Z</time>
      </trkpt>
      <trkpt lat="47.56354" lon="1.50496">
        <ele>66.9</ele>
        <time>2010-11-06T14:39:13Z</time>
      </trkpt>
      <trkpt lat="47.5637" lon="1.50434">
        <ele>72.1</ele>
        <time>2010-11-06T14:39:24Z</time>
      </trkpt>
      <trkpt lat="47.56373" lon="1.50422">
        <ele>72.2</ele>
        <time>2010-11-06T14:39:26Z</time>
      </trkpt>
      <trkpt lat="47.56373" lon="1.50408">
        <ele>73.4</ele>
        <time>2010-11-06T14:39:28Z</time>
      </trkpt>
      <trkpt lat="47.56371" lon="1.504">
        <ele>74.1</ele>
        <time>2010-11-06T14:39:29Z</time>
      </trkpt>
      <trkpt lat="47.5636" lon="1.50368">
        <ele>76.6</ele>
        <time>2010-11-06T14:39:33Z</time>
      </trkpt>
      <trkpt lat="47.56356" lon="1.50349">
        <ele>77.5</ele>
        <time>2010-11-06T14:39:36Z</time>
      </trkpt>
      <trkpt lat="47.56356" lon="1.50331">
        <ele>77.6</ele>
        <time>2010-11-06T14:39:39Z</time>
      </trkpt>
      <trkpt lat="47.56359" lon="1.50314">
        <ele>77.7</ele>
        <time>2010-11-06T14:39:42Z</time>
      </trkpt>
      <trkpt lat="47.56369" lon="1.50277">
        <ele>75.2</ele>
        <time>2010-11-06T14:39:48Z</time>
      </trkpt>
      <trkpt lat="47.56374" lon="1.50236">
        <ele>76.5</ele>
        <time>2010-11-06T14:39:53Z</time>
      </trkpt>
      <trkpt lat="47.56387" lon="1.50156">
        <ele>83</ele>
        <time>2010-11-06T14:40:03Z</time>
      </trkpt>
      <trkpt lat="47.56394" lon="1.50128">
        <ele>80.2</ele>
        <time>2010-11-06T14:40:07Z</time>
      </trkpt>
      <trkpt lat="47.56406" lon="1.50097">
        <ele>77</ele>
        <time>2010-11-06T14:40:13Z</time>
      </trkpt>
      <trkpt lat="47.56409" lon="1.50095">
        <ele>77</ele>
        <time>2010-11-06T14:40:14Z</time>
      </trkpt>
      <trkpt lat="47.56414" lon="1.50096">
        <ele>77</ele>
        <time>2010-11-06T14:40:18Z</time>
      </trkpt>
      <trkpt lat="47.56438" lon="1.50109">
        <ele>76.7</ele>
        <time>2010-11-06T14:40:32Z</time>
      </trkpt>
      <trkpt lat="47.5649" lon="1.50132">
        <ele>74.6</ele>
        <time>2010-11-06T14:40:50Z</time>
      </trkpt>
      <trkpt lat="47.56535" lon="1.50156">
        <ele>73.3</ele>
        <time>2010-11-06T14:41:04Z</time>
      </trkpt>
      <trkpt lat="47.56569" lon="1.50172">
        <ele>72.6</ele>
        <time>2010-11-06T14:41:13Z</time>
      </trkpt>
      <trkpt lat="47.56617" lon="1.50199">
        <ele>69.1</ele>
        <time>2010-11-06T14:41:25Z</time>
      </trkpt>
      <trkpt lat="47.56656" lon="1.50217">
        <ele>69</ele>
        <time>2010-11-06T14:41:34Z</time>
      </trkpt>
      <trkpt lat="47.56732" lon="1.50258">
        <ele>70.1</ele>
        <time>2010-11-06T14:41:53Z</time>
      </trkpt>
      <trkpt lat="47.56759" lon="1.5027">
        <ele>71.3</ele>
        <time>2010-11-06T14:42:00Z</time>
      </trkpt>
      <trkpt lat="47.56794" lon="1.50291">
        <ele>71.7</ele>
        <time>2010-11-06T14:42:08Z</time>
      </trkpt>
      <trkpt lat="47.56857" lon="1.50321">
        <ele>65.2</ele>
        <time>2010-11-06T14:42:21Z</time>
      </trkpt>
      <trkpt lat="47.56859" lon="1.50325">
        <ele>65.2</ele>
        <time>2010-11-06T14:42:22Z</time>
      </trkpt>
      <trkpt lat="47.56866" lon="1.50338">
        <ele>65</ele>
        <time>2010-11-06T14:42:25Z</time>
      </trkpt>
      <trkpt lat="47.56884" lon="1.50446">
        <ele>59.3</ele>
        <time>2010-11-06T14:42:38Z</time>
      </trkpt>
      <trkpt lat="47.56906" lon="1.50598">
        <ele>60.1</ele>
        <time>2010-11-06T14:42:53Z</time>
      </trkpt>
      <trkpt lat="47.56945" lon="1.50916">
        <ele>56.6</ele>
        <time>2010-11-06T14:43:25Z</time>
      </trkpt>
      <trkpt lat="47.56947" lon="1.50925">
        <ele>56.7</ele>
        <time>2010-11-06T14:43:26Z</time>
      </trkpt>
      <trkpt lat="47.56951" lon="1.50931">
        <ele>56.7</ele>
        <time>2010-11-06T14:43:27Z</time>
      </trkpt>
      <trkpt lat="47.56956" lon="1.50932">
        <ele>56.7</ele>
        <time>2010-11-06T14:43:28Z</time>
      </trkpt>
      <trkpt lat="47.56961" lon="1.5093">
        <ele>56.7</ele>
        <time>2010-11-06T14:43:29Z</time>
      </trkpt>
      <trkpt lat="47.56972" lon="1.50916">
        <ele>56.8</ele>
        <time>2010-11-06T14:43:32Z</time>
      </trkpt>
      <trkpt lat="47.56987" lon="1.50892">
        <ele>56.6</ele>
        <time>2010-11-06T14:43:36Z</time>
      </trkpt>
      <trkpt lat="47.57068" lon="1.50742">
        <ele>53.9</ele>
        <time>2010-11-06T14:43:58Z</time>
      </trkpt>
      <trkpt lat="47.57096" lon="1.50682">
        <ele>53.1</ele>
        <time>2010-11-06T14:44:06Z</time>
      </trkpt>
      <trkpt lat="47.57113" lon="1.50632">
        <ele>51.8</ele>
        <time>2010-11-06T14:44:12Z</time>
      </trkpt>
      <trkpt lat="47.57145" lon="1.50515">
        <ele>51.3</ele>
        <time>2010-11-06T14:44:25Z</time>
      </trkpt>
      <trkpt lat="47.5715" lon="1.50487">
        <ele>51.4</ele>
        <time>2010-11-06T14:44:28Z</time>
      </trkpt>
      <trkpt lat="47.57155" lon="1.5044">
        <ele>51.7</ele>
        <time>2010-11-06T14:44:33Z</time>
      </trkpt>
      <trkpt lat="47.5716" lon="1.50413">
        <ele>52.2</ele>
        <time>2010-11-06T14:44:36Z</time>
      </trkpt>
      <trkpt lat="47.57193" lon="1.50309">
        <ele>53</ele>
        <time>2010-11-06T14:44:48Z</time>
      </trkpt>
      <trkpt lat="47.57224" lon="1.50221">
        <ele>53.3</ele>
        <time>2010-11-06T14:44:59Z</time>
      </trkpt>
      <trkpt lat="47.57263" lon="1.50122">
        <ele>53.6</ele>
        <time>2010-11-06T14:45:11Z</time>
      </trkpt>
      <trkpt lat="47.57354" lon="1.49921">
        <ele>51</ele>
        <time>2010-11-06T14:45:34Z</time>
      </trkpt>
      <trkpt lat="47.57409" lon="1.49789">
        <ele>50.9</ele>
        <time>2010-11-06T14:45:47Z</time>
      </trkpt>
      <trkpt lat="47.57422" lon="1.49749">
        <ele>53</ele>
        <time>2010-11-06T14:45:51Z</time>
      </trkpt>
      <trkpt lat="47.57436" lon="1.49712">
        <ele>53.8</ele>
        <time>2010-11-06T14:45:55Z</time>
      </trkpt>
      <trkpt lat="47.57455" lon="1.49667">
        <ele>54.4</ele>
        <time>2010-11-06T14:46:00Z</time>
      </trkpt>
      <trkpt lat="47.57476" lon="1.49619">
        <ele>52.9</ele>
        <time>2010-11-06T14:46:06Z</time>
      </trkpt>
      <trkpt lat="47.57478" lon="1.49612">
        <ele>52.4</ele>
        <time>2010-11-06T14:46:07Z</time>
      </trkpt>
      <trkpt lat="47.57479" lon="1.49595">
        <ele>51.7</ele>
        <time>2010-11-06T14:46:09Z</time>
      </trkpt>
      <trkpt lat="47.57474" lon="1.49589">
        <ele>51.4</ele>
        <time>2010-11-06T14:46:10Z</time>
      </trkpt>
      <trkpt lat="47.57428" lon="1.49548">
        <ele>51.3</ele>
        <time>2010-11-06T14:46:18Z</time>
      </trkpt>
      <trkpt lat="47.57311" lon="1.49441">
        <ele>51.2</ele>
        <time>2010-11-06T14:46:42Z</time>
      </trkpt>
      <trkpt lat="47.57207" lon="1.49348">
        <ele>50.2</ele>
        <time>2010-11-06T14:47:06Z</time>
      </trkpt>
      <trkpt lat="47.57205" lon="1.49344">
        <ele>50</ele>
        <time>2010-11-06T14:47:07Z</time>
      </trkpt>
      <trkpt lat="47.57195" lon="1.49284">
        <ele>47.2</ele>
        <time>2010-11-06T14:47:16Z</time>
      </trkpt>
      <trkpt lat="47.57187" lon="1.49173">
        <ele>39</ele>
        <time>2010-11-06T14:47:30Z</time>
      </trkpt>
      <trkpt lat="47.57175" lon="1.49084">
        <ele>39.1</ele>
        <time>2010-11-06T14:47:41Z</time>
      </trkpt>
      <trkpt lat="47.57167" lon="1.49042">
        <ele>39.5</ele>
        <time>2010-11-06T14:47:46Z</time>
      </trkpt>
      <trkpt lat="47.5716" lon="1.48969">
        <ele>44.3</ele>
        <time>2010-11-06T14:47:57Z</time>
      </trkpt>
      <trkpt lat="47.57155" lon="1.48944">
        <ele>49.5</ele>
        <time>2010-11-06T14:48:00Z</time>
      </trkpt>
      <trkpt lat="47.57148" lon="1.4892">
        <ele>53</ele>
        <time>2010-11-06T14:48:03Z</time>
      </trkpt>
      <trkpt lat="47.57144" lon="1.48898">
        <ele>56</ele>
        <time>2010-11-06T14:48:06Z</time>
      </trkpt>
      <trkpt lat="47.5714" lon="1.48857">
        <ele>59.5</ele>
        <time>2010-11-06T14:48:12Z</time>
      </trkpt>
      <trkpt lat="47.57138" lon="1.48844">
        <ele>60.1</ele>
        <time>2010-11-06T14:48:14Z</time>
      </trkpt>
      <trkpt lat="47.57136" lon="1.48817">
        <ele>62.6</ele>
        <time>2010-11-06T14:48:18Z</time>
      </trkpt>
      <trkpt lat="47.57137" lon="1.48804">
        <ele>63.4</ele>
        <time>2010-11-06T14:48:20Z</time>
      </trkpt>
      <trkpt lat="47.57129" lon="1.48739">
        <ele>64</ele>
        <time>2010-11-06T14:48:30Z</time>
      </trkpt>
      <trkpt lat="47.57122" lon="1.48709">
        <ele>68</ele>
        <time>2010-11-06T14:48:34Z</time>
      </trkpt>
      <trkpt lat="47.5711" lon="1.48645">
        <ele>68.3</ele>
        <time>2010-11-06T14:48:43Z</time>
      </trkpt>
      <trkpt lat="47.57108" lon="1.4861">
        <ele>65.3</ele>
        <time>2010-11-06T14:48:48Z</time>
      </trkpt>
      <trkpt lat="47.57101" lon="1.48558">
        <ele>60.6</ele>
        <time>2010-11-06T14:48:55Z</time>
      </trkpt>
      <trkpt lat="47.57095" lon="1.48466">
        <ele>47.5</ele>
        <time>2010-11-06T14:49:08Z</time>
      </trkpt>
      <trkpt lat="47.57082" lon="1.48385">
        <ele>49.9</ele>
        <time>2010-11-06T14:49:19Z</time>
      </trkpt>
      <trkpt lat="47.57082" lon="1.48369">
        <ele>49.9</ele>
        <time>2010-11-06T14:49:22Z</time>
      </trkpt>
      <trkpt lat="47.5708" lon="1.48367">
        <ele>49.9</ele>
        <time>2010-11-06T14:49:23Z</time>
      </trkpt>
      <trkpt lat="47.57075" lon="1.48367">
        <ele>49.9</ele>
        <time>2010-11-06T14:49:24Z</time>
      </trkpt>
      <trkpt lat="47.57059" lon="1.48369">
        <ele>51.1</ele>
        <time>2010-11-06T14:49:27Z</time>
      </trkpt>
      <trkpt lat="47.57022" lon="1.48368">
        <ele>54.4</ele>
        <time>2010-11-06T14:49:33Z</time>
      </trkpt>
      <trkpt lat="47.57004" lon="1.4837">
        <ele>55.4</ele>
        <time>2010-11-06T14:49:36Z</time>
      </trkpt>
      <trkpt lat="47.56886" lon="1.48388">
        <ele>55.4</ele>
        <time>2010-11-06T14:49:58Z</time>
      </trkpt>
      <trkpt lat="47.56839" lon="1.48399">
        <ele>54.8</ele>
        <time>2010-11-06T14:50:08Z</time>
      </trkpt>
      <trkpt lat="47.56833" lon="1.48397">
        <ele>54.7</ele>
        <time>2010-11-06T14:50:10Z</time>
      </trkpt>
      <trkpt lat="47.56832" lon="1.48394">
        <ele>54.7</ele>
        <time>2010-11-06T14:50:11Z</time>
      </trkpt>
      <trkpt lat="47.56842" lon="1.48351">
        <ele>54</ele>
        <time>2010-11-06T14:50:18Z</time>
      </trkpt>
      <trkpt lat="47.56864" lon="1.4824">
        <ele>57.9</ele>
        <time>2010-11-06T14:50:33Z</time>
      </trkpt>
      <trkpt lat="47.5688" lon="1.48176">
        <ele>57.7</ele>
        <time>2010-11-06T14:50:42Z</time>
      </trkpt>
      <trkpt lat="47.56899" lon="1.48087">
        <ele>57</ele>
        <time>2010-11-06T14:50:54Z</time>
      </trkpt>
      <trkpt lat="47.56916" lon="1.48032">
        <ele>57.4</ele>
        <time>2010-11-06T14:51:02Z</time>
      </trkpt>
      <trkpt lat="47.56901" lon="1.48003">
        <ele>60.7</ele>
        <time>2010-11-06T14:51:03Z</time>
      </trkpt>
      <trkpt lat="47.56906" lon="1.47998">
        <ele>60.5</ele>
        <time>2010-11-06T14:51:04Z</time>
      </trkpt>
      <trkpt lat="47.56914" lon="1.4798">
        <ele>62.1</ele>
        <time>2010-11-06T14:51:07Z</time>
      </trkpt>
      <trkpt lat="47.56934" lon="1.47926">
        <ele>58.9</ele>
        <time>2010-11-06T14:51:16Z</time>
      </trkpt>
      <trkpt lat="47.56948" lon="1.47881">
        <ele>58</ele>
        <time>2010-11-06T14:51:23Z</time>
      </trkpt>
      <trkpt lat="47.56963" lon="1.47822">
        <ele>58.3</ele>
        <time>2010-11-06T14:51:31Z</time>
      </trkpt>
      <trkpt lat="47.56991" lon="1.47728">
        <ele>58.2</ele>
        <time>2010-11-06T14:51:42Z</time>
      </trkpt>
      <trkpt lat="47.57004" lon="1.47672">
        <ele>57.9</ele>
        <time>2010-11-06T14:51:48Z</time>
      </trkpt>
      <trkpt lat="47.57014" lon="1.47615">
        <ele>57.2</ele>
        <time>2010-11-06T14:51:54Z</time>
      </trkpt>
      <trkpt lat="47.57031" lon="1.47537">
        <ele>57.3</ele>
        <time>2010-11-06T14:52:02Z</time>
      </trkpt>
      <trkpt lat="47.57057" lon="1.47432">
        <ele>57.2</ele>
        <time>2010-11-06T14:52:15Z</time>
      </trkpt>
      <trkpt lat="47.57056" lon="1.47423">
        <ele>57.2</ele>
        <time>2010-11-06T14:52:17Z</time>
      </trkpt>
      <trkpt lat="47.57052" lon="1.47412">
        <ele>57.2</ele>
        <time>2010-11-06T14:52:20Z</time>
      </trkpt>
      <trkpt lat="47.57046" lon="1.47369">
        <ele>57</ele>
        <time>2010-11-06T14:52:30Z</time>
      </trkpt>
      <trkpt lat="47.57037" lon="1.47315">
        <ele>55.7</ele>
        <time>2010-11-06T14:52:38Z</time>
      </trkpt>
      <trkpt lat="47.57031" lon="1.47255">
        <ele>54.8</ele>
        <time>2010-11-06T14:52:45Z</time>
      </trkpt>
      <trkpt lat="47.57018" lon="1.47191">
        <ele>54.5</ele>
        <time>2010-11-06T14:52:53Z</time>
      </trkpt>
      <trkpt lat="47.57008" lon="1.47133">
        <ele>56</ele>
        <time>2010-11-06T14:53:00Z</time>
      </trkpt>
      <trkpt lat="47.57004" lon="1.47083">
        <ele>56.6</ele>
        <time>2010-11-06T14:53:16Z</time>
      </trkpt>
      <trkpt lat="47.57" lon="1.47071">
        <ele>56.6</ele>
        <time>2010-11-06T14:53:22Z</time>
      </trkpt>
      <trkpt lat="47.5699" lon="1.47055">
        <ele>57</ele>
        <time>2010-11-06T14:53:28Z</time>
      </trkpt>
      <trkpt lat="47.5699" lon="1.47026">
        <ele>57.5</ele>
        <time>2010-11-06T14:53:37Z</time>
      </trkpt>
      <trkpt lat="47.56994" lon="1.47">
        <ele>57.7</ele>
        <time>2010-11-06T14:53:42Z</time>
      </trkpt>
      <trkpt lat="47.56985" lon="1.46939">
        <ele>57.4</ele>
        <time>2010-11-06T14:53:53Z</time>
      </trkpt>
      <trkpt lat="47.56983" lon="1.46898">
        <ele>57.2</ele>
        <time>2010-11-06T14:54:01Z</time>
      </trkpt>
      <trkpt lat="47.56978" lon="1.46871">
        <ele>56.6</ele>
        <time>2010-11-06T14:54:06Z</time>
      </trkpt>
      <trkpt lat="47.5697" lon="1.4681">
        <ele>55.9</ele>
        <time>2010-11-06T14:54:17Z</time>
      </trkpt>
      <trkpt lat="47.56968" lon="1.46774">
        <ele>55.1</ele>
        <time>2010-11-06T14:54:25Z</time>
      </trkpt>
      <trkpt lat="47.56963" lon="1.46743">
        <ele>54.4</ele>
        <time>2010-11-06T14:54:31Z</time>
      </trkpt>
      <trkpt lat="47.56959" lon="1.4671">
        <ele>54.3</ele>
        <time>2010-11-06T14:54:39Z</time>
      </trkpt>
      <trkpt lat="47.56955" lon="1.46688">
        <ele>54.5</ele>
        <time>2010-11-06T14:54:44Z</time>
      </trkpt>
      <trkpt lat="47.56953" lon="1.46684">
        <ele>54.6</ele>
        <time>2010-11-06T14:54:45Z</time>
      </trkpt>
      <trkpt lat="47.56947" lon="1.46681">
        <ele>54.7</ele>
        <time>2010-11-06T14:54:47Z</time>
      </trkpt>
      <trkpt lat="47.56923" lon="1.46673">
        <ele>55.6</ele>
        <time>2010-11-06T14:54:52Z</time>
      </trkpt>
      <trkpt lat="47.56893" lon="1.46658">
        <ele>58.7</ele>
        <time>2010-11-06T14:54:57Z</time>
      </trkpt>
      <trkpt lat="47.56852" lon="1.46643">
        <ele>60.1</ele>
        <time>2010-11-06T14:55:07Z</time>
      </trkpt>
      <trkpt lat="47.56829" lon="1.46632">
        <ele>60.4</ele>
        <time>2010-11-06T14:55:14Z</time>
      </trkpt>
      <trkpt lat="47.5674" lon="1.4661">
        <ele>60.3</ele>
        <time>2010-11-06T14:55:46Z</time>
      </trkpt>
      <trkpt lat="47.56735" lon="1.46605">
        <ele>60.3</ele>
        <time>2010-11-06T14:55:48Z</time>
      </trkpt>
      <trkpt lat="47.56731" lon="1.46596">
        <ele>60.3</ele>
        <time>2010-11-06T14:55:50Z</time>
      </trkpt>
      <trkpt lat="47.56722" lon="1.46561">
        <ele>59.8</ele>
        <time>2010-11-06T14:55:58Z</time>
      </trkpt>
      <trkpt lat="47.56718" lon="1.46554">
        <ele>59.6</ele>
        <time>2010-11-06T14:56:00Z</time>
      </trkpt>
      <trkpt lat="47.56712" lon="1.46543">
        <ele>59.6</ele>
        <time>2010-11-06T14:56:03Z</time>
      </trkpt>
      <trkpt lat="47.56698" lon="1.4653">
        <ele>59.6</ele>
        <time>2010-11-06T14:56:07Z</time>
      </trkpt>
      <trkpt lat="47.56694" lon="1.46522">
        <ele>59.6</ele>
        <time>2010-11-06T14:56:09Z</time>
      </trkpt>
      <trkpt lat="47.56678" lon="1.465">
        <ele>59.7</ele>
        <time>2010-11-06T14:56:14Z</time>
      </trkpt>
      <trkpt lat="47.56649" lon="1.46444">
        <ele>58.6</ele>
        <time>2010-11-06T14:56:32Z</time>
      </trkpt>
      <trkpt lat="47.56647" lon="1.46437">
        <ele>58.6</ele>
        <time>2010-11-06T14:56:34Z</time>
      </trkpt>
      <trkpt lat="47.56643" lon="1.46402">
        <ele>58.6</ele>
        <time>2010-11-06T14:56:43Z</time>
      </trkpt>
      <trkpt lat="47.56638" lon="1.46385">
        <ele>58.6</ele>
        <time>2010-11-06T14:56:46Z</time>
      </trkpt>
      <trkpt lat="47.56626" lon="1.46324">
        <ele>59</ele>
        <time>2010-11-06T14:56:55Z</time>
      </trkpt>
      <trkpt lat="47.56612" lon="1.46275">
        <ele>58.7</ele>
        <time>2010-11-06T14:57:02Z</time>
      </trkpt>
      <trkpt lat="47.56462" lon="1.45901">
        <ele>54.6</ele>
        <time>2010-11-06T14:58:01Z</time>
      </trkpt>
      <trkpt lat="47.56449" lon="1.45874">
        <ele>54.3</ele>
        <time>2010-11-06T14:58:06Z</time>
      </trkpt>
      <trkpt lat="47.56419" lon="1.45822">
        <ele>53.9</ele>
        <time>2010-11-06T14:58:19Z</time>
      </trkpt>
      <trkpt lat="47.56391" lon="1.45769">
        <ele>54.2</ele>
        <time>2010-11-06T14:58:31Z</time>
      </trkpt>
      <trkpt lat="47.56383" lon="1.45759">
        <ele>54.2</ele>
        <time>2010-11-06T14:58:35Z</time>
      </trkpt>
      <trkpt lat="47.56378" lon="1.4576">
        <ele>54.1</ele>
        <time>2010-11-06T14:58:37Z</time>
      </trkpt>
      <trkpt lat="47.56352" lon="1.45779">
        <ele>54.6</ele>
        <time>2010-11-06T14:58:52Z</time>
      </trkpt>
      <trkpt lat="47.56352" lon="1.4579">
        <ele>54.7</ele>
        <time>2010-11-06T14:58:55Z</time>
      </trkpt>
      <trkpt lat="47.5633" lon="1.45883">
        <ele>56.2</ele>
        <time>2010-11-06T14:59:17Z</time>
      </trkpt>
      <trkpt lat="47.5633" lon="1.45889">
        <ele>56.2</ele>
        <time>2010-11-06T14:59:19Z</time>
      </trkpt>
      <trkpt lat="47.56332" lon="1.45898">
        <ele>56.5</ele>
        <time>2010-11-06T14:59:23Z</time>
      </trkpt>
    </trkseg>
  </trk>
</gpx>